Observation data for Fritch on 01/20/2019      Previous  Date  Next       Current Mesonet Observations  Soil Data  Daily Summary Page  Observations in Plain Language
KFR1 200600Z 08000KT M01/M04 A3026 RMK A01 T10061036  RH  080%=      5-min Rain = 0
KFR1 200601Z 08001KT M01/M04 A3025 RMK A01 T10061035  RH  080%=      5-min Rain = 0
KFR1 200602Z 09001KT M01/M04 A3025 RMK A01 T10051035  RH  081%=      5-min Rain = 0
KFR1 200603Z 09001KT M01/M04 A3025 RMK A01 T10051035  RH  080%=      5-min Rain = 0
KFR1 200604Z 08001KT M01/M04 A3025 RMK A01 T10051035  RH  080%=      5-min Rain = 0
KFR1 200605Z 07001KT M01/M04 A3025 RMK A01 T10051036  RH  080%=      5-min Rain = 0
KFR1 200606Z 05000KT M01/M04 A3026 RMK A01 T10051035  RH  081%=      5-min Rain = 0
KFR1 200607Z 00001KT M01/M04 A3026 RMK A01 T10061035  RH  081%=      5-min Rain = 0
KFR1 200608Z 35001KT M01/M04 A3026 RMK A01 T10061035  RH  081%=      5-min Rain = 0
KFR1 200609Z 32001KT M01/M03 A3025 RMK A01 T10071034  RH  082%=      5-min Rain = 0
KFR1 200610Z 30000KT M01/M03 A3025 RMK A01 T10071033  RH  082%=      5-min Rain = 0
KFR1 200611Z 31000KT M01/M03 A3025 RMK A01 T10071033  RH  083%=      5-min Rain = 0
KFR1 200612Z 31000KT M01/M03 A3026 RMK A01 T10081034  RH  082%=      5-min Rain = 0
KFR1 200613Z 31001KT M01/M04 A3026 RMK A01 T10091037  RH  081%=      5-min Rain = 0
KFR1 200614Z 34001KT M01/M04 A3026 RMK A01 T10101037  RH  082%=      5-min Rain = 0
KFR1 200615Z 34000KT M01/M04 A3026 RMK A01 T10111036  RH  083%=      5-min Rain = 0
KFR1 200616Z 00000KT M01/M04 A3026 RMK A01 T10111036  RH  084%=      5-min Rain = 0
KFR1 200617Z 00000KT M01/M03 A3026 RMK A01 T10111034  RH  084%=      5-min Rain = 0
KFR1 200618Z 00000KT M01/M03 A3026 RMK A01 T10111033  RH  085%=      5-min Rain = 0
KFR1 200619Z 00000KT M01/M03 A3026 RMK A01 T10111032  RH  086%=      5-min Rain = 0
KFR1 200620Z 00000KT M01/M03 A3026 RMK A01 T10111032  RH  086%=      5-min Rain = 0
KFR1 200621Z 00000KT M01/M03 A3026 RMK A01 T10121032  RH  086%=      5-min Rain = 0
KFR1 200622Z 00000KT M01/M03 A3026 RMK A01 T10121032  RH  086%=      5-min Rain = 0
KFR1 200623Z 00000KT M01/M03 A3026 RMK A01 T10121032  RH  086%=      5-min Rain = 0
KFR1 200624Z 00000KT M01/M03 A3026 RMK A01 T10121032  RH  086%=      5-min Rain = 0
KFR1 200625Z 34000KT M01/M03 A3026 RMK A01 T10121032  RH  087%=      5-min Rain = 0
KFR1 200626Z 34001KT M01/M03 A3026 RMK A01 T10121032  RH  087%=      5-min Rain = 0
KFR1 200627Z 00001KT M01/M03 A3026 RMK A01 T10121032  RH  087%=      5-min Rain = 0
KFR1 200628Z 01002KT M01/M03 A3026 RMK A01 T10121032  RH  087%=      5-min Rain = 0
KFR1 200629Z 02002KT M01/M03 A3026 RMK A01 T10131033  RH  086%=      5-min Rain = 0
KFR1 200630Z 02001KT M01/M03 A3026 RMK A01 T10131034  RH  086%=      5-min Rain = 0
KFR1 200631Z 00001KT M01/M04 A3026 RMK A01 T10131035  RH  086%=      5-min Rain = 0
KFR1 200632Z 35001KT M01/M04 A3026 RMK A01 T10141036  RH  085%=      5-min Rain = 0
KFR1 200633Z 35001KT M02/M04 A3026 RMK A01 T10151035  RH  086%=      5-min Rain = 0
KFR1 200634Z 00000KT M02/M04 A3026 RMK A01 T10151035  RH  086%=      5-min Rain = 0
KFR1 200635Z 00000KT M02/M04 A3026 RMK A01 T10161035  RH  087%=      5-min Rain = 0
KFR1 200636Z 01001KT M02/M03 A3026 RMK A01 T10151034  RH  087%=      5-min Rain = 0
KFR1 200637Z 02002KT M02/M03 A3026 RMK A01 T10161033  RH  088%=      5-min Rain = 0
KFR1 200638Z 01002KT M02/M03 A3026 RMK A01 T10161032  RH  089%=      5-min Rain = 0
KFR1 200639Z 00002KT M02/M03 A3026 RMK A01 T10151031  RH  089%=      5-min Rain = 0
KFR1 200640Z 36002KT M02/M03 A3026 RMK A01 T10151030  RH  090%=      5-min Rain = 0
KFR1 200641Z 35003KT M02/M03 A3026 RMK A01 T10151029  RH  090%=      5-min Rain = 0
KFR1 200642Z 34002KT M02/M03 A3026 RMK A01 T10151029  RH  090%=      5-min Rain = 0
KFR1 200643Z 32002KT M02/M03 A3026 RMK A01 T10151029  RH  090%=      5-min Rain = 0
KFR1 200644Z 31002KT M02/M03 A3026 RMK A01 T10151030  RH  090%=      5-min Rain = 0
KFR1 200645Z 30002KT M02/M03 A3026 RMK A01 T10151030  RH  090%=      5-min Rain = 0
KFR1 200646Z 30001KT M02/M03 A3025 RMK A01 T10161030  RH  090%=      5-min Rain = 0
KFR1 200647Z 30000KT M02/M03 A3025 RMK A01 T10161031  RH  090%=      5-min Rain = 0
KFR1 200648Z 00000KT M02/M03 A3025 RMK A01 T10171031  RH  090%=      5-min Rain = 0
KFR1 200649Z 00000KT M02/M03 A3025 RMK A01 T10171031  RH  090%=      5-min Rain = 0
KFR1 200650Z 00000KT M02/M03 A3025 RMK A01 T10171031  RH  090%=      5-min Rain = 0
KFR1 200651Z 00000KT M02/M03 A3025 RMK A01 T10181032  RH  090%=      5-min Rain = 0
KFR1 200652Z 01001KT M02/M03 A3026 RMK A01 T10181032  RH  090%=      5-min Rain = 0
KFR1 200653Z 00002KT M02/M03 A3026 RMK A01 T10191033  RH  090%=      5-min Rain = 0
KFR1 200654Z 00002KT M02/M03 A3026 RMK A01 T10191032  RH  091%=      5-min Rain = 0
KFR1 200655Z 35002KT M02/M03 A3026 RMK A01 T10181031  RH  091%=      5-min Rain = 0
KFR1 200656Z 34002KT M02/M03 A3026 RMK A01 T10181030  RH  091%=      5-min Rain = 0
KFR1 200657Z 34002KT M02/M03 A3026 RMK A01 T10171029  RH  092%=      5-min Rain = 0
KFR1 200658Z 33002KT M02/M03 A3026 RMK A01 T10171028  RH  092%=      5-min Rain = 0
KFR1 200659Z 34002KT M02/M03 A3026 RMK A01 T10171028  RH  092%=      5-min Rain = 0
KFR1 200700Z 34001KT M02/M03 A3026 RMK A01 T10171029  RH  092%=      5-min Rain = 0
KFR1 200701Z 34001KT M02/M03 A3026 RMK A01 T10161029  RH  091%=      5-min Rain = 0
KFR1 200702Z 34002KT M02/M03 A3026 RMK A01 T10161028  RH  092%=      5-min Rain = 0
KFR1 200703Z 35002KT M01/M03 A3026 RMK A01 T10141026  RH  092%=      5-min Rain = 0
KFR1 200704Z 35002KT M01/M03 A3026 RMK A01 T10141026  RH  091%=      5-min Rain = 0
KFR1 200705Z 00002KT M01/M03 A3026 RMK A01 T10141027  RH  091%=      5-min Rain = 0
KFR1 200706Z 01001KT M02/M03 A3026 RMK A01 T10151028  RH  091%=      5-min Rain = 0
KFR1 200707Z 01001KT M02/M03 A3026 RMK A01 T10161029  RH  090%=      5-min Rain = 0
KFR1 200708Z 00002KT M02/M03 A3026 RMK A01 T10161030  RH  090%=      5-min Rain = 0
KFR1 200709Z 35002KT M02/M03 A3026 RMK A01 T10171031  RH  090%=      5-min Rain = 0
KFR1 200710Z 34002KT M02/M03 A3026 RMK A01 T10181032  RH  090%=      5-min Rain = 0
KFR1 200711Z 34001KT M02/M03 A3026 RMK A01 T10181032  RH  090%=      5-min Rain = 0
KFR1 200712Z 34001KT M02/M03 A3026 RMK A01 T10181031  RH  091%=      5-min Rain = 0
KFR1 200713Z 31001KT M02/M03 A3026 RMK A01 T10181031  RH  091%=      5-min Rain = 0
KFR1 200714Z 30001KT M02/M03 A3026 RMK A01 T10181030  RH  091%=      5-min Rain = 0
KFR1 200715Z 28001KT M02/M03 A3026 RMK A01 T10181030  RH  091%=      5-min Rain = 0
KFR1 200716Z 33001KT M02/M03 A3026 RMK A01 T10181030  RH  091%=      5-min Rain = 0
KFR1 200717Z 35002KT M02/M03 A3026 RMK A01 T10181030  RH  092%=      5-min Rain = 0
KFR1 200718Z 35001KT M02/M03 A3026 RMK A01 T10181030  RH  092%=      5-min Rain = 0
KFR1 200719Z 34001KT M02/M03 A3026 RMK A01 T10181030  RH  092%=      5-min Rain = 0
KFR1 200720Z 31001KT M02/M03 A3026 RMK A01 T10181030  RH  092%=      5-min Rain = 0
KFR1 200721Z 29002KT M02/M03 A3026 RMK A01 T10181030  RH  092%=      5-min Rain = 0
KFR1 200722Z 29002KT M02/M03 A3026 RMK A01 T10191031  RH  092%=      5-min Rain = 0
KFR1 200723Z 28001KT M02/M03 A3026 RMK A01 T10191032  RH  091%=      5-min Rain = 0
KFR1 200724Z 25002KT M02/M03 A3026 RMK A01 T10201032  RH  091%=      5-min Rain = 0
KFR1 200725Z 24001KT M02/M03 A3026 RMK A01 T10201033  RH  091%=      5-min Rain = 0
KFR1 200726Z 24002KT M02/M03 A3025 RMK A01 T10201033  RH  091%=      5-min Rain = 0
KFR1 200727Z 22002KT M02/M03 A3025 RMK A01 T10201032  RH  092%=      5-min Rain = 0
KFR1 200728Z 21002KT M02/M03 A3025 RMK A01 T10201032  RH  092%=      5-min Rain = 0
KFR1 200729Z 20001KT M02/M03 A3025 RMK A01 T10201032  RH  092%=      5-min Rain = 0
KFR1 200730Z 21002KT M02/M03 A3025 RMK A01 T10201032  RH  092%=      5-min Rain = 0
KFR1 200731Z 21001KT M02/M03 A3025 RMK A01 T10201032  RH  092%=      5-min Rain = 0
KFR1 200732Z 23001KT M02/M04 A3025 RMK A01 T10231036  RH  091%=      5-min Rain = 0
KFR1 200733Z 23001KT M02/M04 A3025 RMK A01 T10241038  RH  090%=      5-min Rain = 0
KFR1 200734Z 23001KT M03/M04 A3025 RMK A01 T10251039  RH  090%=      5-min Rain = 0
KFR1 200735Z 23001KT M03/M04 A3025 RMK A01 T10251038  RH  091%=      5-min Rain = 0
KFR1 200736Z 23001KT M02/M04 A3026 RMK A01 T10241036  RH  091%=      5-min Rain = 0
KFR1 200737Z 25001KT M02/M04 A3026 RMK A01 T10241035  RH  092%=      5-min Rain = 0
KFR1 200738Z 26001KT M02/M04 A3026 RMK A01 T10241035  RH  092%=      5-min Rain = 0
KFR1 200739Z 26001KT M02/M03 A3026 RMK A01 T10231034  RH  092%=      5-min Rain = 0
KFR1 200740Z 26002KT M02/M03 A3025 RMK A01 T10231034  RH  092%=      5-min Rain = 0
KFR1 200741Z 26002KT M02/M03 A3025 RMK A01 T10221033  RH  092%=      5-min Rain = 0
KFR1 200742Z 26002KT M02/M03 A3025 RMK A01 T10221033  RH  092%=      5-min Rain = 0
KFR1 200743Z 25002KT M02/M03 A3025 RMK A01 T10211033  RH  091%=      5-min Rain = 0
KFR1 200744Z 26002KT M02/M03 A3025 RMK A01 T10211034  RH  091%=      5-min Rain = 0
KFR1 200745Z 25001KT M02/M04 A3026 RMK A01 T10211035  RH  090%=      5-min Rain = 0
KFR1 200746Z 26001KT M02/M04 A3026 RMK A01 T10211036  RH  090%=      5-min Rain = 0
KFR1 200747Z 28001KT M02/M04 A3026 RMK A01 T10211036  RH  090%=      5-min Rain = 0
KFR1 200748Z 30001KT M02/M03 A3026 RMK A01 T10211034  RH  090%=      5-min Rain = 0
KFR1 200749Z 34001KT M02/M03 A3026 RMK A01 T10201033  RH  091%=      5-min Rain = 0
KFR1 200750Z 01001KT M02/M03 A3026 RMK A01 T10201033  RH  091%=      5-min Rain = 0
KFR1 200751Z 01001KT M02/M03 A3026 RMK A01 T10201033  RH  091%=      5-min Rain = 0
KFR1 200752Z 02000KT M02/M03 A3026 RMK A01 T10211033  RH  091%=      5-min Rain = 0
KFR1 200753Z 01000KT M02/M03 A3025 RMK A01 T10211034  RH  091%=      5-min Rain = 0
KFR1 200754Z 00000KT M02/M03 A3025 RMK A01 T10221034  RH  091%=      5-min Rain = 0
KFR1 200755Z 00000KT M02/M04 A3025 RMK A01 T10221035  RH  091%=      5-min Rain = 0
KFR1 200756Z 01000KT M02/M04 A3025 RMK A01 T10231035  RH  091%=      5-min Rain = 0
KFR1 200757Z 01001KT M02/M04 A3025 RMK A01 T10231035  RH  092%=      5-min Rain = 0
KFR1 200758Z 01000KT M02/M04 A3025 RMK A01 T10231035  RH  092%=      5-min Rain = 0
KFR1 200759Z 01000KT M02/M03 A3025 RMK A01 T10231034  RH  092%=      5-min Rain = 0
KFR1 200800Z 33001KT M02/M03 A3025 RMK A01 T10221033  RH  092%=      5-min Rain = 0
KFR1 200801Z 33000KT M02/M03 A3025 RMK A01 T10231034  RH  092%=      5-min Rain = 0
KFR1 200802Z 28000KT M02/M03 A3025 RMK A01 T10221033  RH  092%=      5-min Rain = 0
KFR1 200803Z 28001KT M02/M03 A3025 RMK A01 T10221034  RH  092%=      5-min Rain = 0
KFR1 200804Z 27001KT M02/M03 A3025 RMK A01 T10231034  RH  092%=      5-min Rain = 0
KFR1 200805Z 28001KT M02/M03 A3025 RMK A01 T10221034  RH  092%=      5-min Rain = 0
KFR1 200806Z 27001KT M02/M03 A3025 RMK A01 T10221034  RH  092%=      5-min Rain = 0
KFR1 200807Z 27001KT M02/M03 A3025 RMK A01 T10221034  RH  092%=      5-min Rain = 0
KFR1 200808Z 26001KT M02/M03 A3025 RMK A01 T10221034  RH  091%=      5-min Rain = 0
KFR1 200809Z 26001KT M02/M04 A3025 RMK A01 T10221035  RH  091%=      5-min Rain = 0
KFR1 200810Z 27001KT M02/M04 A3025 RMK A01 T10231036  RH  091%=      5-min Rain = 0
KFR1 200811Z 27000KT M02/M04 A3025 RMK A01 T10231036  RH  091%=      5-min Rain = 0
KFR1 200812Z 00000KT M02/M04 A3025 RMK A01 T10231035  RH  091%=      5-min Rain = 0
KFR1 200813Z 00000KT M02/M04 A3025 RMK A01 T10231035  RH  091%=      5-min Rain = 0
KFR1 200814Z 01000KT M02/M04 A3025 RMK A01 T10231035  RH  091%=      5-min Rain = 0
KFR1 200815Z 03001KT M02/M03 A3025 RMK A01 T10221034  RH  091%=      5-min Rain = 0
KFR1 200816Z 04001KT M02/M04 A3024 RMK A01 T10221035  RH  091%=      5-min Rain = 0
KFR1 200817Z 04001KT M02/M04 A3024 RMK A01 T10221035  RH  091%=      5-min Rain = 0
KFR1 200818Z 04001KT M02/M04 A3024 RMK A01 T10221036  RH  090%=      5-min Rain = 0
KFR1 200819Z 03001KT M02/M04 A3024 RMK A01 T10221036  RH  090%=      5-min Rain = 0
KFR1 200820Z 00000KT M02/M04 A3025 RMK A01 T10221036  RH  090%=      5-min Rain = 0
KFR1 200821Z 26001KT M02/M04 A3025 RMK A01 T10231037  RH  090%=      5-min Rain = 0
KFR1 200822Z 25001KT M02/M04 A3025 RMK A01 T10231037  RH  090%=      5-min Rain = 0
KFR1 200823Z 26001KT M02/M04 A3025 RMK A01 T10241039  RH  090%=      5-min Rain = 0
KFR1 200824Z 28001KT M03/M04 A3025 RMK A01 T10251040  RH  089%=      5-min Rain = 0
KFR1 200825Z 29002KT M03/M04 A3025 RMK A01 T10251040  RH  089%=      5-min Rain = 0
KFR1 200826Z 30002KT M03/M04 A3025 RMK A01 T10251039  RH  090%=      5-min Rain = 0
KFR1 200827Z 31002KT M03/M04 A3025 RMK A01 T10251038  RH  090%=      5-min Rain = 0
KFR1 200828Z 31002KT M02/M04 A3025 RMK A01 T10241038  RH  091%=      5-min Rain = 0
KFR1 200829Z 31001KT M02/M04 A3025 RMK A01 T10241037  RH  091%=      5-min Rain = 0
KFR1 200830Z 31001KT M02/M04 A3025 RMK A01 T10231037  RH  091%=      5-min Rain = 0
KFR1 200831Z 33001KT M02/M04 A3025 RMK A01 T10231036  RH  091%=      5-min Rain = 0
KFR1 200832Z 34001KT M02/M04 A3026 RMK A01 T10231037  RH  090%=      5-min Rain = 0
KFR1 200833Z 33001KT M02/M04 A3026 RMK A01 T10231038  RH  090%=      5-min Rain = 0
KFR1 200834Z 31002KT M02/M04 A3026 RMK A01 T10241039  RH  090%=      5-min Rain = 0
KFR1 200835Z 32001KT M02/M04 A3026 RMK A01 T10241039  RH  090%=      5-min Rain = 0
KFR1 200836Z 31001KT M03/M04 A3026 RMK A01 T10251039  RH  090%=      5-min Rain = 0
KFR1 200837Z 29001KT M03/M04 A3026 RMK A01 T10261040  RH  090%=      5-min Rain = 0
KFR1 200838Z 28001KT M03/M04 A3026 RMK A01 T10261040  RH  090%=      5-min Rain = 0
KFR1 200839Z 29001KT M03/M04 A3026 RMK A01 T10261040  RH  090%=      5-min Rain = 0
KFR1 200840Z 25001KT M03/M04 A3026 RMK A01 T10261040  RH  090%=      5-min Rain = 0
KFR1 200841Z 24002KT M03/M04 A3026 RMK A01 T10271041  RH  090%=      5-min Rain = 0
KFR1 200842Z 24002KT M03/M04 A3026 RMK A01 T10271041  RH  090%=      5-min Rain = 0
KFR1 200843Z 21002KT M03/M04 A3026 RMK A01 T10271041  RH  090%=      5-min Rain = 0
KFR1 200844Z 21002KT M03/M04 A3026 RMK A01 T10271043  RH  088%=      5-min Rain = 0
KFR1 200845Z 21002KT M03/M05 A3026 RMK A01 T10281046  RH  087%=      5-min Rain = 0
KFR1 200846Z 20001KT M03/M05 A3026 RMK A01 T10281046  RH  088%=      5-min Rain = 0
KFR1 200847Z 21001KT M03/M05 A3026 RMK A01 T10281045  RH  088%=      5-min Rain = 0
KFR1 200848Z 21001KT M03/M04 A3026 RMK A01 T10291044  RH  089%=      5-min Rain = 0
KFR1 200849Z 22001KT M03/M04 A3026 RMK A01 T10291044  RH  090%=      5-min Rain = 0
KFR1 200850Z 23002KT M03/M04 A3026 RMK A01 T10291044  RH  090%=      5-min Rain = 0
KFR1 200851Z 24002KT M03/M04 A3026 RMK A01 T10301044  RH  090%=      5-min Rain = 0
KFR1 200852Z 23002KT M03/M04 A3026 RMK A01 T10301044  RH  090%=      5-min Rain = 0
KFR1 200853Z 23002KT M03/M05 A3026 RMK A01 T10301045  RH  090%=      5-min Rain = 0
KFR1 200854Z 23002KT M03/M05 A3026 RMK A01 T10311045  RH  090%=      5-min Rain = 0
KFR1 200855Z 22003KT M03/M05 A3026 RMK A01 T10311045  RH  090%=      5-min Rain = 0
KFR1 200856Z 21003KT M03/M04 A3026 RMK A01 T10301044  RH  090%=      5-min Rain = 0
KFR1 200857Z 22003KT M03/M04 A3026 RMK A01 T10291043  RH  090%=      5-min Rain = 0
KFR1 200858Z 22003KT M03/M04 A3026 RMK A01 T10271044  RH  088%=      5-min Rain = 0
KFR1 200859Z 23005KT M03/M05 A3026 RMK A01 T10251045  RH  086%=      5-min Rain = 0
KFR1 200900Z 22004KT M02/M05 A3026 RMK A01 T10231045  RH  085%=      5-min Rain = 0
KFR1 200901Z 23005KT M02/M05 A3026 RMK A01 T10211046  RH  083%=      5-min Rain = 0
KFR1 200902Z 22004KT M02/M05 A3026 RMK A01 T10211047  RH  082%=      5-min Rain = 0
KFR1 200903Z 22004KT M02/M05 A3026 RMK A01 T10211049  RH  082%=      5-min Rain = 0
KFR1 200904Z 22004KT M02/M05 A3026 RMK A01 T10231050  RH  082%=      5-min Rain = 0
KFR1 200905Z 22005KT M02/M05 A3026 RMK A01 T10241050  RH  082%=      5-min Rain = 0
KFR1 200906Z 22004KT M02/M05 A3025 RMK A01 T10241050  RH  082%=      5-min Rain = 0
KFR1 200907Z 22005KT M02/M05 A3025 RMK A01 T10231050  RH  082%=      5-min Rain = 0
KFR1 200908Z 21005KT M02/M05 A3025 RMK A01 T10231050  RH  082%=      5-min Rain = 0
KFR1 200909Z 22005KT M02/M05 A3025 RMK A01 T10231050  RH  082%=      5-min Rain = 0
KFR1 200910Z 21005KT M02/M05 A3025 RMK A01 T10231050  RH  082%=      5-min Rain = 0
KFR1 200911Z 22006KT M02/M05 A3025 RMK A01 T10241050  RH  082%=      5-min Rain = 0
KFR1 200912Z 22006KT M02/M05 A3025 RMK A01 T10241050  RH  082%=      5-min Rain = 0
KFR1 200913Z 22006KT M03/M05 A3025 RMK A01 T10251051  RH  082%=      5-min Rain = 0
KFR1 200914Z 21005KT M03/M05 A3025 RMK A01 T10251051  RH  083%=      5-min Rain = 0
KFR1 200915Z 21005KT M03/M05 A3025 RMK A01 T10251051  RH  083%=      5-min Rain = 0
KFR1 200916Z 21005KT M03/M05 A3025 RMK A01 T10261051  RH  083%=      5-min Rain = 0
KFR1 200917Z 22006KT M03/M05 A3025 RMK A01 T10261051  RH  083%=      5-min Rain = 0
KFR1 200918Z 22006KT M03/M05 A3025 RMK A01 T10271051  RH  083%=      5-min Rain = 0
KFR1 200919Z 22006KT M03/M05 A3025 RMK A01 T10271051  RH  083%=      5-min Rain = 0
KFR1 200920Z 22006KT M03/M05 A3025 RMK A01 T10271051  RH  083%=      5-min Rain = 0
KFR1 200921Z 23006KT M03/M05 A3025 RMK A01 T10271051  RH  083%=      5-min Rain = 0
KFR1 200922Z 23006KT M03/M05 A3025 RMK A01 T10271051  RH  084%=      5-min Rain = 0
KFR1 200923Z 23006KT M03/M05 A3025 RMK A01 T10271051  RH  084%=      5-min Rain = 0
KFR1 200924Z 23006KT M03/M05 A3025 RMK A01 T10281051  RH  084%=      5-min Rain = 0
KFR1 200925Z 22005KT M03/M05 A3025 RMK A01 T10281051  RH  084%=      5-min Rain = 0
KFR1 200926Z 22005KT M03/M05 A3025 RMK A01 T10281051  RH  084%=      5-min Rain = 0
KFR1 200927Z 22006KT M03/M05 A3025 RMK A01 T10291051  RH  085%=      5-min Rain = 0
KFR1 200928Z 22006KT M03/M05 A3025 RMK A01 T10281050  RH  085%=      5-min Rain = 0
KFR1 200929Z 21007KT M03/M05 A3025 RMK A01 T10271050  RH  085%=      5-min Rain = 0
KFR1 200930Z 21007KT M03/M05 A3025 RMK A01 T10261048  RH  085%=      5-min Rain = 0
KFR1 200931Z 21007KT M02/M05 A3025 RMK A01 T10241048  RH  084%=      5-min Rain = 0
KFR1 200932Z 21007KT M02/M05 A3025 RMK A01 T10241048  RH  083%=      5-min Rain = 0
KFR1 200933Z 20007KT M02/M05 A3025 RMK A01 T10231048  RH  083%=      5-min Rain = 0
KFR1 200934Z 20007KT M02/M05 A3025 RMK A01 T10231049  RH  083%=      5-min Rain = 0
KFR1 200935Z 20007KT M02/M05 A3024 RMK A01 T10241049  RH  083%=      5-min Rain = 0
KFR1 200936Z 20007KT M03/M05 A3024 RMK A01 T10251050  RH  083%=      5-min Rain = 0
KFR1 200937Z 20008KT M03/M05 A3024 RMK A01 T10261050  RH  083%=      5-min Rain = 0
KFR1 200938Z 20008KT M03/M05 A3024 RMK A01 T10261050  RH  084%=      5-min Rain = 0
KFR1 200939Z 21008KT M03/M05 A3024 RMK A01 T10261049  RH  084%=      5-min Rain = 0
KFR1 200940Z 20007KT M03/M05 A3024 RMK A01 T10261049  RH  084%=      5-min Rain = 0
KFR1 200941Z 20008KT M03/M05 A3024 RMK A01 T10251049  RH  084%=      5-min Rain = 0
KFR1 200942Z 20009KT M03/M05 A3024 RMK A01 T10251049  RH  084%=      5-min Rain = 0
KFR1 200943Z 20008KT M03/M05 A3024 RMK A01 T10251049  RH  083%=      5-min Rain = 0
KFR1 200944Z 20008KT M03/M05 A3024 RMK A01 T10251049  RH  083%=      5-min Rain = 0
KFR1 200945Z 20008KT M03/M05 A3024 RMK A01 T10251049  RH  083%=      5-min Rain = 0
KFR1 200946Z 20007KT M03/M05 A3024 RMK A01 T10251049  RH  084%=      5-min Rain = 0
KFR1 200947Z 20007KT M03/M05 A3024 RMK A01 T10251049  RH  084%=      5-min Rain = 0
KFR1 200948Z 20007KT M03/M05 A3024 RMK A01 T10251048  RH  084%=      5-min Rain = 0
KFR1 200949Z 20007KT M03/M05 A3024 RMK A01 T10251048  RH  084%=      5-min Rain = 0
KFR1 200950Z 20008KT M03/M05 A3024 RMK A01 T10251049  RH  084%=      5-min Rain = 0
KFR1 200951Z 20007KT M03/M05 A3024 RMK A01 T10251049  RH  084%=      5-min Rain = 0
KFR1 200952Z 20007KT M03/M05 A3024 RMK A01 T10251049  RH  084%=      5-min Rain = 0
KFR1 200953Z 20007KT M03/M05 A3024 RMK A01 T10251049  RH  084%=      5-min Rain = 0
KFR1 200954Z 20008KT M03/M05 A3024 RMK A01 T10251048  RH  084%=      5-min Rain = 0
KFR1 200955Z 20008KT M02/M05 A3024 RMK A01 T10241048  RH  084%=      5-min Rain = 0
KFR1 200956Z 19009KT M02/M05 A3024 RMK A01 T10241048  RH  084%=      5-min Rain = 0
KFR1 200957Z 20008KT M02/M05 A3024 RMK A01 T10241047  RH  084%=      5-min Rain = 0
KFR1 200958Z 20009KT M02/M05 A3024 RMK A01 T10231047  RH  084%=      5-min Rain = 0
KFR1 200959Z 20010KT M02/M05 A3024 RMK A01 T10221046  RH  084%=      5-min Rain = 0
KFR1 201000Z 20009KT M02/M05 A3024 RMK A01 T10211046  RH  083%=      5-min Rain = 0
KFR1 201001Z 20010KT M02/M05 A3023 RMK A01 T10201046  RH  083%=      5-min Rain = 0
KFR1 201002Z 20011KT M02/M05 A3023 RMK A01 T10201046  RH  082%=      5-min Rain = 0
KFR1 201003Z 19010KT M02/M05 A3023 RMK A01 T10201046  RH  082%=      5-min Rain = 0
KFR1 201004Z 19012KT M02/M05 A3023 RMK A01 T10191046  RH  082%=      5-min Rain = 0
KFR1 201005Z 19011KT M02/M05 A3023 RMK A01 T10191046  RH  082%=      5-min Rain = 0
KFR1 201006Z 20011KT M02/M05 A3023 RMK A01 T10191046  RH  082%=      5-min Rain = 0
KFR1 201007Z 20011KT M02/M05 A3023 RMK A01 T10191046  RH  082%=      5-min Rain = 0
KFR1 201008Z 20011KT M02/M05 A3023 RMK A01 T10181046  RH  082%=      5-min Rain = 0
KFR1 201009Z 20012KT M02/M05 A3023 RMK A01 T10181046  RH  082%=      5-min Rain = 0
KFR1 201010Z 20012KT M02/M05 A3023 RMK A01 T10181046  RH  081%=      5-min Rain = 0
KFR1 201011Z 20012KT M02/M05 A3023 RMK A01 T10181046  RH  081%=      5-min Rain = 0
KFR1 201012Z 20012KT M02/M05 A3022 RMK A01 T10171046  RH  081%=      5-min Rain = 0
KFR1 201013Z 20013KT M02/M05 A3022 RMK A01 T10171046  RH  081%=      5-min Rain = 0
KFR1 201014Z 20011KT M02/M05 A3023 RMK A01 T10181046  RH  081%=      5-min Rain = 0
KFR1 201015Z 20010KT M02/M05 A3023 RMK A01 T10171046  RH  081%=      5-min Rain = 0
KFR1 201016Z 20012KT M02/M05 A3023 RMK A01 T10171046  RH  081%=      5-min Rain = 0
KFR1 201017Z 20011KT M02/M05 A3023 RMK A01 T10181046  RH  081%=      5-min Rain = 0
KFR1 201018Z 20011KT M02/M05 A3023 RMK A01 T10171046  RH  081%=      5-min Rain = 0
KFR1 201019Z 20010KT M02/M05 A3023 RMK A01 T10181047  RH  081%=      5-min Rain = 0
KFR1 201020Z 20011KT M02/M05 A3023 RMK A01 T10181047  RH  081%=      5-min Rain = 0
KFR1 201021Z 20010KT M02/M05 A3023 RMK A01 T10181047  RH  081%=      5-min Rain = 0
KFR1 201022Z 20009KT M02/M05 A3023 RMK A01 T10191047  RH  081%=      5-min Rain = 0
KFR1 201023Z 20009KT M02/M05 A3023 RMK A01 T10191047  RH  081%=      5-min Rain = 0
KFR1 201024Z 20009KT M02/M05 A3023 RMK A01 T10191047  RH  081%=      5-min Rain = 0
KFR1 201025Z 20010KT M02/M05 A3023 RMK A01 T10201047  RH  081%=      5-min Rain = 0
KFR1 201026Z 20009KT M02/M05 A3023 RMK A01 T10201047  RH  081%=      5-min Rain = 0
KFR1 201027Z 20009KT M02/M05 A3023 RMK A01 T10201047  RH  081%=      5-min Rain = 0
KFR1 201028Z 21009KT M02/M05 A3023 RMK A01 T10201047  RH  081%=      5-min Rain = 0
KFR1 201029Z 21009KT M02/M05 A3023 RMK A01 T10201048  RH  081%=      5-min Rain = 0
KFR1 201030Z 21008KT M02/M05 A3023 RMK A01 T10201048  RH  081%=      5-min Rain = 0
KFR1 201031Z 21008KT M02/M05 A3023 RMK A01 T10211048  RH  081%=      5-min Rain = 0
KFR1 201032Z 21008KT M02/M05 A3023 RMK A01 T10211048  RH  082%=      5-min Rain = 0
KFR1 201033Z 22008KT M02/M05 A3023 RMK A01 T10211048  RH  082%=      5-min Rain = 0
KFR1 201034Z 21008KT M02/M05 A3023 RMK A01 T10211048  RH  082%=      5-min Rain = 0
KFR1 201035Z 21007KT M02/M05 A3023 RMK A01 T10211048  RH  082%=      5-min Rain = 0
KFR1 201036Z 22007KT M02/M05 A3023 RMK A01 T10221048  RH  082%=      5-min Rain = 0
KFR1 201037Z 21008KT M02/M05 A3023 RMK A01 T10221049  RH  082%=      5-min Rain = 0
KFR1 201038Z 21009KT M02/M05 A3023 RMK A01 T10221048  RH  082%=      5-min Rain = 0
KFR1 201039Z 21010KT M02/M05 A3023 RMK A01 T10221049  RH  082%=      5-min Rain = 0
KFR1 201040Z 21009KT M02/M05 A3023 RMK A01 T10221049  RH  082%=      5-min Rain = 0
KFR1 201041Z 21009KT M02/M05 A3023 RMK A01 T10221049  RH  082%=      5-min Rain = 0
KFR1 201042Z 21009KT M02/M05 A3023 RMK A01 T10221049  RH  082%=      5-min Rain = 0
KFR1 201043Z 21008KT M02/M05 A3023 RMK A01 T10221049  RH  082%=      5-min Rain = 0
KFR1 201044Z 21008KT M02/M05 A3022 RMK A01 T10221049  RH  082%=      5-min Rain = 0
KFR1 201045Z 21008KT M02/M05 A3022 RMK A01 T10231049  RH  082%=      5-min Rain = 0
KFR1 201046Z 21009KT M02/M05 A3022 RMK A01 T10231049  RH  082%=      5-min Rain = 0
KFR1 201047Z 20009KT M02/M05 A3022 RMK A01 T10231049  RH  082%=      5-min Rain = 0
KFR1 201048Z 21010KT M02/M05 A3022 RMK A01 T10231049  RH  082%=      5-min Rain = 0
KFR1 201049Z 21010KT M02/M05 A3022 RMK A01 T10231049  RH  082%=      5-min Rain = 0
KFR1 201050Z 20010KT M02/M05 A3022 RMK A01 T10231049  RH  082%=      5-min Rain = 0
KFR1 201051Z 20010KT M02/M05 A3022 RMK A01 T10231049  RH  082%=      5-min Rain = 0
KFR1 201052Z 21010KT M02/M05 A3022 RMK A01 T10221049  RH  082%=      5-min Rain = 0
KFR1 201053Z 21010KT M02/M05 A3021 RMK A01 T10221049  RH  082%=      5-min Rain = 0
KFR1 201054Z 21009KT M02/M05 A3021 RMK A01 T10221049  RH  082%=      5-min Rain = 0
KFR1 201055Z 21011KT M02/M05 A3021 RMK A01 T10221049  RH  082%=      5-min Rain = 0
KFR1 201056Z 21010KT M02/M05 A3021 RMK A01 T10211048  RH  082%=      5-min Rain = 0
KFR1 201057Z 20010KT M02/M05 A3021 RMK A01 T10211049  RH  082%=      5-min Rain = 0
KFR1 201058Z 21010KT M02/M05 A3021 RMK A01 T10211048  RH  082%=      5-min Rain = 0
KFR1 201059Z 21009KT M02/M05 A3021 RMK A01 T10211049  RH  081%=      5-min Rain = 0
KFR1 201100Z 20009KT M02/M05 A3021 RMK A01 T10211049  RH  081%=      5-min Rain = 0
KFR1 201101Z 20008KT M02/M05 A3021 RMK A01 T10211049  RH  081%=      5-min Rain = 0
KFR1 201102Z 20010KT M02/M05 A3021 RMK A01 T10211049  RH  081%=      5-min Rain = 0
KFR1 201103Z 20008KT M02/M05 A3021 RMK A01 T10211048  RH  081%=      5-min Rain = 0
KFR1 201104Z 20007KT M02/M05 A3021 RMK A01 T10211049  RH  081%=      5-min Rain = 0
KFR1 201105Z 20006KT M02/M05 A3021 RMK A01 T10221049  RH  082%=      5-min Rain = 0
KFR1 201106Z 20007KT M02/M05 A3021 RMK A01 T10221049  RH  082%=      5-min Rain = 0
KFR1 201107Z 20008KT M02/M05 A3021 RMK A01 T10221049  RH  082%=      5-min Rain = 0
KFR1 201108Z 20008KT M02/M05 A3021 RMK A01 T10221049  RH  082%=      5-min Rain = 0
KFR1 201109Z 20007KT M02/M05 A3021 RMK A01 T10221049  RH  082%=      5-min Rain = 0
KFR1 201110Z 20005KT M02/M05 A3021 RMK A01 T10221049  RH  081%=      5-min Rain = 0
KFR1 201111Z 20007KT M02/M05 A3021 RMK A01 T10221049  RH  082%=      5-min Rain = 0
KFR1 201112Z 20006KT M02/M05 A3021 RMK A01 T10211049  RH  082%=      5-min Rain = 0
KFR1 201113Z 20007KT M02/M05 A3021 RMK A01 T10211049  RH  081%=      5-min Rain = 0
KFR1 201114Z 20006KT M02/M05 A3021 RMK A01 T10211048  RH  081%=      5-min Rain = 0
KFR1 201115Z 20005KT M02/M05 A3021 RMK A01 T10211049  RH  081%=      5-min Rain = 0
KFR1 201116Z 20004KT M02/M05 A3021 RMK A01 T10211049  RH  081%=      5-min Rain = 0
KFR1 201117Z 20005KT M02/M05 A3021 RMK A01 T10221049  RH  081%=      5-min Rain = 0
KFR1 201118Z 20006KT M02/M05 A3021 RMK A01 T10221049  RH  082%=      5-min Rain = 0
KFR1 201119Z 20005KT M02/M05 A3021 RMK A01 T10221049  RH  082%=      5-min Rain = 0
KFR1 201120Z 20005KT M02/M05 A3021 RMK A01 T10221049  RH  082%=      5-min Rain = 0
KFR1 201121Z 20006KT M02/M05 A3021 RMK A01 T10221049  RH  082%=      5-min Rain = 0
KFR1 201122Z 19006KT M02/M05 A3021 RMK A01 T10221049  RH  082%=      5-min Rain = 0
KFR1 201123Z 19007KT M02/M05 A3021 RMK A01 T10221048  RH  082%=      5-min Rain = 0
KFR1 201124Z 20006KT M02/M05 A3021 RMK A01 T10221049  RH  082%=      5-min Rain = 0
KFR1 201125Z 20007KT M02/M05 A3021 RMK A01 T10221048  RH  082%=      5-min Rain = 0
KFR1 201126Z 20007KT M02/M05 A3021 RMK A01 T10211048  RH  082%=      5-min Rain = 0
KFR1 201127Z 20007KT M02/M05 A3021 RMK A01 T10221049  RH  082%=      5-min Rain = 0
KFR1 201128Z 20006KT M02/M05 A3021 RMK A01 T10221049  RH  082%=      5-min Rain = 0
KFR1 201129Z 20007KT M02/M05 A302 RMK A01 T10211048  RH  082%=      5-min Rain = 0
KFR1 201130Z 21007KT M02/M05 A302 RMK A01 T10211048  RH  082%=      5-min Rain = 0
KFR1 201131Z 20008KT M02/M05 A302 RMK A01 T10201048  RH  082%=      5-min Rain = 0
KFR1 201132Z 21008KT M02/M05 A302 RMK A01 T10201048  RH  081%=      5-min Rain = 0
KFR1 201133Z 21008KT M02/M05 A302 RMK A01 T10191047  RH  081%=      5-min Rain = 0
KFR1 201134Z 21009KT M02/M05 A302 RMK A01 T10191047  RH  081%=      5-min Rain = 0
KFR1 201135Z 21009KT M02/M05 A302 RMK A01 T10181047  RH  080%=      5-min Rain = 0
KFR1 201136Z 21009KT M02/M05 A302 RMK A01 T10181047  RH  081%=      5-min Rain = 0
KFR1 201137Z 21010KT M02/M05 A3019 RMK A01 T10181047  RH  081%=      5-min Rain = 0
KFR1 201138Z 21010KT M02/M05 A3019 RMK A01 T10181047  RH  080%=      5-min Rain = 0
KFR1 201139Z 21010KT M02/M05 A3019 RMK A01 T10181047  RH  080%=      5-min Rain = 0
KFR1 201140Z 21011KT M02/M05 A3019 RMK A01 T10181047  RH  080%=      5-min Rain = 0
KFR1 201141Z 20011KT M02/M05 A3019 RMK A01 T10171047  RH  080%=      5-min Rain = 0
KFR1 201142Z 20011KT M02/M05 A3019 RMK A01 T10171047  RH  080%=      5-min Rain = 0
KFR1 201143Z 21012KT M02/M05 A3019 RMK A01 T10171047  RH  080%=      5-min Rain = 0
KFR1 201144Z 21013KT M02/M05 A3018 RMK A01 T10171047  RH  080%=      5-min Rain = 0
KFR1 201145Z 21013KT M02/M05 A3018 RMK A01 T10161046  RH  080%=      5-min Rain = 0
KFR1 201146Z 21014KT M02/M05 A3018 RMK A01 T10151046  RH  079%=      5-min Rain = 0
KFR1 201147Z 21013KT M02/M05 A3018 RMK A01 T10151046  RH  079%=      5-min Rain = 0
KFR1 201148Z 20013KT M02/M05 A3018 RMK A01 T10151046  RH  079%=      5-min Rain = 0
KFR1 201149Z 21014KT M02/M05 A3018 RMK A01 T10151046  RH  079%=      5-min Rain = 0
KFR1 201150Z 21013KT M02/M05 A3017 RMK A01 T10151046  RH  079%=      5-min Rain = 0
KFR1 201151Z 21013KT M01/M05 A3017 RMK A01 T10141046  RH  079%=      5-min Rain = 0
KFR1 201152Z 21013KT M01/M05 A3017 RMK A01 T10141045  RH  079%=      5-min Rain = 0
KFR1 201153Z 21014KT M01/M05 A3018 RMK A01 T10141046  RH  079%=      5-min Rain = 0
KFR1 201154Z 20013KT M01/M05 A3017 RMK A01 T10141046  RH  079%=      5-min Rain = 0
KFR1 201155Z 20012KT M01/M05 A3017 RMK A01 T10141046  RH  079%=      5-min Rain = 0
KFR1 201156Z 21013KT M01/M05 A3017 RMK A01 T10141046  RH  079%=      5-min Rain = 0
KFR1 201157Z 20013KT M01/M05 A3017 RMK A01 T10141045  RH  079%=      5-min Rain = 0
KFR1 201158Z 21014KT M01/M05 A3017 RMK A01 T10131045  RH  079%=      5-min Rain = 0
KFR1 201159Z 20014KT M01/M05 A3017 RMK A01 T10131045  RH  079%=      5-min Rain = 0
KFR1 201200Z 21013KT M01/M05 A3017 RMK A01 T10131045  RH  078%=      5-min Rain = 0
KFR1 201201Z 21012KT M01/M05 A3017 RMK A01 T10131045  RH  078%=      5-min Rain = 0
KFR1 201202Z 21013KT M01/M05 A3017 RMK A01 T10131045  RH  078%=      5-min Rain = 0
KFR1 201203Z 21013KT M01/M05 A3017 RMK A01 T10121045  RH  078%=      5-min Rain = 0
KFR1 201204Z 21014KT M01/M05 A3017 RMK A01 T10121045  RH  078%=      5-min Rain = 0
KFR1 201205Z 21014KT M01/M05 A3017 RMK A01 T10121045  RH  078%=      5-min Rain = 0
KFR1 201206Z 21012KT M01/M05 A3017 RMK A01 T10121045  RH  078%=      5-min Rain = 0
KFR1 201207Z 21013KT M01/M05 A3017 RMK A01 T10121045  RH  078%=      5-min Rain = 0
KFR1 201208Z 21013KT M01/M05 A3017 RMK A01 T10121045  RH  078%=      5-min Rain = 0
KFR1 201209Z 21012KT M01/M05 A3017 RMK A01 T10111045  RH  078%=      5-min Rain = 0
KFR1 201210Z 21012KT M01/M04 A3017 RMK A01 T10111044  RH  078%=      5-min Rain = 0
KFR1 201211Z 21011KT M01/M04 A3017 RMK A01 T10101044  RH  078%=      5-min Rain = 0
KFR1 201212Z 21012KT M01/M04 A3017 RMK A01 T10101044  RH  078%=      5-min Rain = 0
KFR1 201213Z 22011KT M01/M04 A3017 RMK A01 T10101044  RH  078%=      5-min Rain = 0
KFR1 201214Z 21011KT M01/M04 A3017 RMK A01 T10101044  RH  078%=      5-min Rain = 0
KFR1 201215Z 21011KT M01/M04 A3017 RMK A01 T10101044  RH  078%=      5-min Rain = 0
KFR1 201216Z 21012KT M01/M04 A3017 RMK A01 T10101044  RH  078%=      5-min Rain = 0
KFR1 201217Z 21011KT M01/M04 A3017 RMK A01 T10101044  RH  078%=      5-min Rain = 0
KFR1 201218Z 21010KT M01/M04 A3017 RMK A01 T10091044  RH  077%=      5-min Rain = 0
KFR1 201219Z 21011KT M01/M04 A3017 RMK A01 T10091044  RH  077%=      5-min Rain = 0
KFR1 201220Z 22011KT M01/M04 A3017 RMK A01 T10091044  RH  077%=      5-min Rain = 0
KFR1 201221Z 22011KT M01/M04 A3017 RMK A01 T10091043  RH  078%=      5-min Rain = 0
KFR1 201222Z 21011KT M01/M04 A3017 RMK A01 T10091043  RH  077%=      5-min Rain = 0
KFR1 201223Z 22009KT M01/M04 A3017 RMK A01 T10081043  RH  077%=      5-min Rain = 0
KFR1 201224Z 22010KT M01/M04 A3017 RMK A01 T10081043  RH  077%=      5-min Rain = 0
KFR1 201225Z 21010KT M01/M04 A3017 RMK A01 T10081043  RH  077%=      5-min Rain = 0
KFR1 201226Z 22010KT M01/M04 A3017 RMK A01 T10081043  RH  077%=      5-min Rain = 0
KFR1 201227Z 22009KT M01/M04 A3017 RMK A01 T10081043  RH  077%=      5-min Rain = 0
KFR1 201228Z 22010KT M01/M04 A3017 RMK A01 T10081043  RH  077%=      5-min Rain = 0
KFR1 201229Z 22011KT M01/M04 A3017 RMK A01 T10071042  RH  077%=      5-min Rain = 0
KFR1 201230Z 22010KT M01/M04 A3017 RMK A01 T10071042  RH  077%=      5-min Rain = 0
KFR1 201231Z 22010KT M01/M04 A3017 RMK A01 T10071042  RH  077%=      5-min Rain = 0
KFR1 201232Z 22010KT M01/M04 A3017 RMK A01 T10071042  RH  077%=      5-min Rain = 0
KFR1 201233Z 22011KT M01/M04 A3017 RMK A01 T10071042  RH  077%=      5-min Rain = 0
KFR1 201234Z 22011KT M01/M04 A3017 RMK A01 T10061042  RH  077%=      5-min Rain = 0
KFR1 201235Z 22010KT M01/M04 A3017 RMK A01 T10061042  RH  076%=      5-min Rain = 0
KFR1 201236Z 22011KT M01/M04 A3017 RMK A01 T10061042  RH  076%=      5-min Rain = 0
KFR1 201237Z 22012KT M01/M04 A3017 RMK A01 T10051042  RH  076%=      5-min Rain = 0
KFR1 201238Z 22010KT M01/M04 A3017 RMK A01 T10051042  RH  076%=      5-min Rain = 0
KFR1 201239Z 22011KT M00/M04 A3017 RMK A01 T10041041  RH  076%=      5-min Rain = 0
KFR1 201240Z 22010KT M00/M04 A3017 RMK A01 T10041041  RH  076%=      5-min Rain = 0
KFR1 201241Z 22010KT M00/M04 A3017 RMK A01 T10041041  RH  076%=      5-min Rain = 0
KFR1 201242Z 22011KT M00/M04 A3017 RMK A01 T10041041  RH  076%=      5-min Rain = 0
KFR1 201243Z 22011KT M00/M04 A3017 RMK A01 T10041041  RH  076%=      5-min Rain = 0
KFR1 201244Z 22012KT M00/M04 A3017 RMK A01 T10031041  RH  075%=      5-min Rain = 0
KFR1 201245Z 22013KT M00/M04 A3017 RMK A01 T10021041  RH  075%=      5-min Rain = 0
KFR1 201246Z 22010KT M00/M04 A3017 RMK A01 T10021041  RH  075%=      5-min Rain = 0
KFR1 201247Z 23010KT M00/M04 A3017 RMK A01 T10021041  RH  075%=      5-min Rain = 0
KFR1 201248Z 22012KT M00/M04 A3017 RMK A01 T10021041  RH  075%=      5-min Rain = 0
KFR1 201249Z 22010KT M00/M04 A3017 RMK A01 T10021041  RH  075%=      5-min Rain = 0
KFR1 201250Z 22011KT M00/M04 A3017 RMK A01 T10021041  RH  075%=      5-min Rain = 0
KFR1 201251Z 23012KT M00/M04 A3017 RMK A01 T10021041  RH  075%=      5-min Rain = 0
KFR1 201252Z 22012KT M00/M04 A3017 RMK A01 T10021041  RH  075%=      5-min Rain = 0
KFR1 201253Z 23012KT M00/M04 A3017 RMK A01 T10011041  RH  075%=      5-min Rain = 0
KFR1 201254Z 22013KT M00/M04 A3017 RMK A01 T10011041  RH  074%=      5-min Rain = 0
KFR1 201255Z 22013KT M00/M04 A3017 RMK A01 T10011041  RH  074%=      5-min Rain = 0
KFR1 201256Z 23013G18KT M00/M04 A3017 RMK A01 T10011041  RH  074%=      5-min Rain = 0
KFR1 201257Z 22014KT M00/M04 A3017 RMK A01 T10011041  RH  074%=      5-min Rain = 0
KFR1 201258Z 23013KT M00/M04 A3017 RMK A01 T10011042  RH  074%=      5-min Rain = 0
KFR1 201259Z 23014KT M00/M04 A3017 RMK A01 T10011041  RH  074%=      5-min Rain = 0
KFR1 201300Z 22016KT M00/M04 A3017 RMK A01 T10011041  RH  074%=      5-min Rain = 0
KFR1 201301Z 22014KT 00/04 A3017 RMK A01 T00-00-41  RH  074%=      5-min Rain = 0
KFR1 201302Z 23014KT 00/04 A3017 RMK A01 T00000-41  RH  074%=      5-min Rain = 0
KFR1 201303Z 23012KT 00/04 A3017 RMK A01 T00-00-42  RH  074%=      5-min Rain = 0
KFR1 201304Z 23013KT M00/M04 A3017 RMK A01 T10011042  RH  074%=      5-min Rain = 0
KFR1 201305Z 22012G18KT M00/M04 A3017 RMK A01 T10021042  RH  074%=      5-min Rain = 0
KFR1 201306Z 22014KT M00/M04 A3017 RMK A01 T10021042  RH  074%=      5-min Rain = 0
KFR1 201307Z 22013KT M00/M04 A3017 RMK A01 T10021042  RH  074%=      5-min Rain = 0
KFR1 201308Z 23016KT M00/M04 A3017 RMK A01 T10021042  RH  074%=      5-min Rain = 0
KFR1 201309Z 22016KT M00/M04 A3017 RMK A01 T10011042  RH  074%=      5-min Rain = 0
KFR1 201310Z 22016KT 00/04 A3017 RMK A01 T00000-41  RH  074%=      5-min Rain = 0
KFR1 201311Z 22015KT 00/04 A3017 RMK A01 T00000-42  RH  073%=      5-min Rain = 0
KFR1 201312Z 22015KT 00/04 A3017 RMK A01 T00-00-42  RH  074%=      5-min Rain = 0
KFR1 201313Z 22014KT M00/M04 A3017 RMK A01 T10011042  RH  074%=      5-min Rain = 0
KFR1 201314Z 22014KT M00/M04 A3017 RMK A01 T10011042  RH  074%=      5-min Rain = 0
KFR1 201315Z 22014KT M00/M04 A3016 RMK A01 T10011042  RH  074%=      5-min Rain = 0
KFR1 201316Z 22012G17KT M00/M04 A3016 RMK A01 T10011041  RH  074%=      5-min Rain = 0
KFR1 201317Z 22014KT M00/M04 A3016 RMK A01 T10021041  RH  075%=      5-min Rain = 0
KFR1 201318Z 22013KT M00/M04 A3016 RMK A01 T10011041  RH  074%=      5-min Rain = 0
KFR1 201319Z 22013KT M00/M04 A3016 RMK A01 T10011042  RH  074%=      5-min Rain = 0
KFR1 201320Z 22013KT M00/M04 A3016 RMK A01 T10011041  RH  074%=      5-min Rain = 0
KFR1 201321Z 22013KT M00/M04 A3016 RMK A01 T10011041  RH  074%=      5-min Rain = 0
KFR1 201322Z 22012KT M00/M04 A3016 RMK A01 T10011041  RH  074%=      5-min Rain = 0
KFR1 201323Z 22012KT 00/04 A3016 RMK A01 T00-00-41  RH  074%=      5-min Rain = 0
KFR1 201324Z 22014KT M00/M04 A3016 RMK A01 T10011041  RH  074%=      5-min Rain = 0
KFR1 201325Z 21013KT 00/04 A3016 RMK A01 T00000-41  RH  074%=      5-min Rain = 0
KFR1 201326Z 22015KT 00/04 A3016 RMK A01 T00000-41  RH  074%=      5-min Rain = 0
KFR1 201327Z 21013KT 00/M04 A3016 RMK A01 T00011041  RH  073%=      5-min Rain = 0
KFR1 201328Z 22013G18KT 00/M04 A3016 RMK A01 T00011041  RH  073%=      5-min Rain = 0
KFR1 201329Z 22013G18KT 00/M04 A3016 RMK A01 T00011041  RH  073%=      5-min Rain = 0
KFR1 201330Z 21012KT 00/M04 A3016 RMK A01 T00021041  RH  073%=      5-min Rain = 0
KFR1 201331Z 22012KT 00/M04 A3016 RMK A01 T00021041  RH  073%=      5-min Rain = 0
KFR1 201332Z 22012KT 00/M04 A3016 RMK A01 T00021041  RH  073%=      5-min Rain = 0
KFR1 201333Z 22011KT 00/M04 A3017 RMK A01 T00021041  RH  073%=      5-min Rain = 0
KFR1 201334Z 22010KT 00/M04 A3017 RMK A01 T00021042  RH  073%=      5-min Rain = 0
KFR1 201335Z 22011KT 00/M04 A3017 RMK A01 T00021041  RH  073%=      5-min Rain = 0
KFR1 201336Z 22010KT 00/M04 A3017 RMK A01 T00011041  RH  073%=      5-min Rain = 0
KFR1 201337Z 22010KT 00/M04 A3017 RMK A01 T00011041  RH  073%=      5-min Rain = 0
KFR1 201338Z 22011KT 00/M04 A3017 RMK A01 T00011041  RH  073%=      5-min Rain = 0
KFR1 201339Z 22010KT 00/M04 A3017 RMK A01 T00011042  RH  073%=      5-min Rain = 0
KFR1 201340Z 22010KT 00/M04 A3017 RMK A01 T00011042  RH  073%=      5-min Rain = 0
KFR1 201341Z 22011KT 00/04 A3017 RMK A01 T00000-42  RH  073%=      5-min Rain = 0
KFR1 201342Z 22010KT 00/M04 A3017 RMK A01 T00011041  RH  073%=      5-min Rain = 0
KFR1 201343Z 22011KT 00/04 A3017 RMK A01 T00000-41  RH  074%=      5-min Rain = 0
KFR1 201344Z 22013KT 00/04 A3017 RMK A01 T00-00-41  RH  074%=      5-min Rain = 0
KFR1 201345Z 22011KT 00/M04 A3017 RMK A01 T00011041  RH  073%=      5-min Rain = 0
KFR1 201346Z 22011KT 00/M04 A3017 RMK A01 T00011041  RH  073%=      5-min Rain = 0
KFR1 201347Z 22013KT 00/04 A3016 RMK A01 T00000-42  RH  073%=      5-min Rain = 0
KFR1 201348Z 22012KT 00/04 A3016 RMK A01 T00000-42  RH  073%=      5-min Rain = 0
KFR1 201349Z 22013KT 00/04 A3016 RMK A01 T00000-42  RH  073%=      5-min Rain = 0
KFR1 201350Z 22012KT 00/M04 A3016 RMK A01 T00011042  RH  073%=      5-min Rain = 0
KFR1 201351Z 22013KT 00/M04 A3016 RMK A01 T00011042  RH  073%=      5-min Rain = 0
KFR1 201352Z 22013KT 00/M04 A3016 RMK A01 T00021042  RH  073%=      5-min Rain = 0
KFR1 201353Z 22014KT 00/M04 A3016 RMK A01 T00021042  RH  073%=      5-min Rain = 0
KFR1 201354Z 22014KT 00/M04 A3016 RMK A01 T00021042  RH  072%=      5-min Rain = 0
KFR1 201355Z 22013KT 00/M04 A3016 RMK A01 T00031042  RH  072%=      5-min Rain = 0
KFR1 201356Z 22012KT 00/M04 A3016 RMK A01 T00031042  RH  072%=      5-min Rain = 0
KFR1 201357Z 22014KT 00/M04 A3016 RMK A01 T00021042  RH  072%=      5-min Rain = 0
KFR1 201358Z 22013KT 00/M04 A3016 RMK A01 T00031041  RH  072%=      5-min Rain = 0
KFR1 201359Z 22016KT 00/M04 A3016 RMK A01 T00031042  RH  072%=      5-min Rain = 0
KFR1 201400Z 22014KT 00/M04 A3016 RMK A01 T00031041  RH  072%=      5-min Rain = 0
KFR1 201401Z 22015KT 00/M04 A3016 RMK A01 T00031042  RH  072%=      5-min Rain = 0
KFR1 201402Z 22016KT 00/M04 A3016 RMK A01 T00041042  RH  072%=      5-min Rain = 0
KFR1 201403Z 22016KT 00/M04 A3016 RMK A01 T00031042  RH  072%=      5-min Rain = 0
KFR1 201404Z 22017KT 00/M04 A3016 RMK A01 T00041042  RH  071%=      5-min Rain = 0
KFR1 201405Z 22015KT 00/M04 A3016 RMK A01 T00041042  RH  071%=      5-min Rain = 0
KFR1 201406Z 21017KT 00/M04 A3015 RMK A01 T00041042  RH  072%=      5-min Rain = 0
KFR1 201407Z 22018KT 00/M04 A3015 RMK A01 T00041041  RH  072%=      5-min Rain = 0
KFR1 201408Z 22017KT 00/M04 A3015 RMK A01 T00041042  RH  072%=      5-min Rain = 0
KFR1 201409Z 22019KT 00/M04 A3015 RMK A01 T00031042  RH  072%=      5-min Rain = 0
KFR1 201410Z 22016KT 00/M04 A3015 RMK A01 T00041042  RH  071%=      5-min Rain = 0
KFR1 201411Z 22017KT 00/M04 A3015 RMK A01 T00041042  RH  071%=      5-min Rain = 0
KFR1 201412Z 21018KT 00/M04 A3015 RMK A01 T00041041  RH  072%=      5-min Rain = 0
KFR1 201413Z 22016KT 00/M04 A3015 RMK A01 T00041042  RH  071%=      5-min Rain = 0
KFR1 201414Z 22017G22KT 00/M04 A3015 RMK A01 T00041042  RH  071%=      5-min Rain = 0
KFR1 201415Z 22016KT 00/M04 A3015 RMK A01 T00041042  RH  071%=      5-min Rain = 0
KFR1 201416Z 22017KT 00/M04 A3015 RMK A01 T00041042  RH  071%=      5-min Rain = 0
KFR1 201417Z 22018KT 00/M04 A3015 RMK A01 T00041042  RH  071%=      5-min Rain = 0
KFR1 201418Z 22017KT 01/M04 A3015 RMK A01 T00051042  RH  071%=      5-min Rain = 0
KFR1 201419Z 22017KT 01/M04 A3015 RMK A01 T00051042  RH  071%=      5-min Rain = 0
KFR1 201420Z 22016G21KT 01/M04 A3015 RMK A01 T00051042  RH  071%=      5-min Rain = 0
KFR1 201421Z 22016KT 01/M04 A3015 RMK A01 T00051042  RH  071%=      5-min Rain = 0
KFR1 201422Z 22016KT 00/M04 A3015 RMK A01 T00041042  RH  071%=      5-min Rain = 0
KFR1 201423Z 22017KT 00/M04 A3015 RMK A01 T00041042  RH  071%=      5-min Rain = 0
KFR1 201424Z 22016KT 01/M04 A3015 RMK A01 T00051041  RH  071%=      5-min Rain = 0
KFR1 201425Z 22017KT 01/M04 A3015 RMK A01 T00051041  RH  071%=      5-min Rain = 0
KFR1 201426Z 22018G23KT 01/M04 A3015 RMK A01 T00051041  RH  071%=      5-min Rain = 0
KFR1 201427Z 22018KT 01/M04 A3015 RMK A01 T00061041  RH  071%=      5-min Rain = 0
KFR1 201428Z 22017KT 01/M04 A3015 RMK A01 T00061041  RH  071%=      5-min Rain = 0
KFR1 201429Z 22018G23KT 01/M04 A3015 RMK A01 T00061041  RH  071%=      5-min Rain = 0
KFR1 201430Z 22016KT 01/M04 A3015 RMK A01 T00061041  RH  071%=      5-min Rain = 0
KFR1 201431Z 23016KT 01/M04 A3015 RMK A01 T00061041  RH  071%=      5-min Rain = 0
KFR1 201432Z 22015KT 01/M04 A3015 RMK A01 T00061041  RH  071%=      5-min Rain = 0
KFR1 201433Z 22017KT 01/M04 A3016 RMK A01 T00061041  RH  071%=      5-min Rain = 0
KFR1 201434Z 22018KT 01/M04 A3016 RMK A01 T00061041  RH  071%=      5-min Rain = 0
KFR1 201435Z 23016KT 01/M04 A3016 RMK A01 T00061041  RH  070%=      5-min Rain = 0
KFR1 201436Z 23012G18KT 01/M04 A3016 RMK A01 T00071041  RH  070%=      5-min Rain = 0
KFR1 201437Z 23012KT 01/M04 A3016 RMK A01 T00071041  RH  070%=      5-min Rain = 0
KFR1 201438Z 23015G20KT 01/M04 A3016 RMK A01 T00071041  RH  070%=      5-min Rain = 0
KFR1 201439Z 25015KT 01/M04 A3016 RMK A01 T00071041  RH  070%=      5-min Rain = 0
KFR1 201440Z 23014KT 01/M04 A3016 RMK A01 T00071041  RH  070%=      5-min Rain = 0
KFR1 201441Z 22014KT 01/M04 A3016 RMK A01 T00071041  RH  070%=      5-min Rain = 0
KFR1 201442Z 23014KT 01/M04 A3016 RMK A01 T00081041  RH  070%=      5-min Rain = 0
KFR1 201443Z 23013G18KT 01/M04 A3016 RMK A01 T00081041  RH  070%=      5-min Rain = 0
KFR1 201444Z 23016KT 01/M04 A3016 RMK A01 T00081041  RH  070%=      5-min Rain = 0
KFR1 201445Z 23016G23KT 01/M04 A3016 RMK A01 T00081040  RH  070%=      5-min Rain = 0
KFR1 201446Z 23015G24KT 01/M04 A3016 RMK A01 T00091040  RH  070%=      5-min Rain = 0
KFR1 201447Z 23017KT 01/M04 A3016 RMK A01 T00091040  RH  070%=      5-min Rain = 0
KFR1 201448Z 23015KT 01/M04 A3016 RMK A01 T00091040  RH  070%=      5-min Rain = 0
KFR1 201449Z 23015KT 01/M04 A3016 RMK A01 T00091040  RH  070%=      5-min Rain = 0
KFR1 201450Z 23018KT 01/M04 A3016 RMK A01 T00091040  RH  070%=      5-min Rain = 0
KFR1 201451Z 23015KT 01/M04 A3016 RMK A01 T00091041  RH  069%=      5-min Rain = 0
KFR1 201452Z 23015KT 01/M04 A3016 RMK A01 T00091040  RH  069%=      5-min Rain = 0
KFR1 201453Z 23014KT 01/M04 A3016 RMK A01 T00091040  RH  069%=      5-min Rain = 0
KFR1 201454Z 23014KT 01/M04 A3016 RMK A01 T00101040  RH  070%=      5-min Rain = 0
KFR1 201455Z 23015KT 01/M04 A3016 RMK A01 T00091040  RH  070%=      5-min Rain = 0
KFR1 201456Z 23015KT 01/M04 A3016 RMK A01 T00091040  RH  070%=      5-min Rain = 0
KFR1 201457Z 22016G23KT 01/M04 A3015 RMK A01 T00101040  RH  069%=      5-min Rain = 0
KFR1 201458Z 23015KT 01/M04 A3015 RMK A01 T00101039  RH  069%=      5-min Rain = 0
KFR1 201459Z 23017G22KT 01/M04 A3016 RMK A01 T00111040  RH  069%=      5-min Rain = 0
KFR1 201500Z 23016KT 01/M04 A3016 RMK A01 T00111040  RH  069%=      5-min Rain = 0
KFR1 201501Z 24016G21KT 01/M04 A3016 RMK A01 T00111039  RH  069%=      5-min Rain = 0
KFR1 201502Z 23017KT 01/M04 A3016 RMK A01 T00111039  RH  069%=      5-min Rain = 0
KFR1 201503Z 23013KT 01/M04 A3016 RMK A01 T00121039  RH  069%=      5-min Rain = 0
KFR1 201504Z 24014KT 01/M04 A3016 RMK A01 T00121039  RH  069%=      5-min Rain = 0
KFR1 201505Z 24014KT 01/M04 A3016 RMK A01 T00121039  RH  069%=      5-min Rain = 0
KFR1 201506Z 23017KT 01/M04 A3016 RMK A01 T00121039  RH  069%=      5-min Rain = 0
KFR1 201507Z 23014KT 01/M04 A3016 RMK A01 T00121039  RH  069%=      5-min Rain = 0
KFR1 201508Z 24014KT 01/M04 A3016 RMK A01 T00121039  RH  069%=      5-min Rain = 0
KFR1 201509Z 24015G20KT 01/M04 A3016 RMK A01 T00121038  RH  069%=      5-min Rain = 0
KFR1 201510Z 24015KT 01/M04 A3016 RMK A01 T00121039  RH  069%=      5-min Rain = 0
KFR1 201511Z 23015KT 01/M04 A3016 RMK A01 T00131039  RH  069%=      5-min Rain = 0
KFR1 201512Z 23017KT 01/M04 A3016 RMK A01 T00131039  RH  069%=      5-min Rain = 0
KFR1 201513Z 23015KT 01/M04 A3016 RMK A01 T00131038  RH  069%=      5-min Rain = 0
KFR1 201514Z 23014KT 01/M04 A3016 RMK A01 T00131039  RH  068%=      5-min Rain = 0
KFR1 201515Z 23016KT 01/M04 A3016 RMK A01 T00131039  RH  068%=      5-min Rain = 0
KFR1 201516Z 24016KT 01/M04 A3016 RMK A01 T00131039  RH  068%=      5-min Rain = 0
KFR1 201517Z 24015KT 01/M04 A3016 RMK A01 T00131039  RH  068%=      5-min Rain = 0
KFR1 201518Z 23014KT 01/M04 A3016 RMK A01 T00131039  RH  069%=      5-min Rain = 0
KFR1 201519Z 23014KT 01/M04 A3016 RMK A01 T00131038  RH  069%=      5-min Rain = 0
KFR1 201520Z 24014G19KT 01/M04 A3016 RMK A01 T00131038  RH  069%=      5-min Rain = 0
KFR1 201521Z 23013G18KT 01/M04 A3016 RMK A01 T00141038  RH  069%=      5-min Rain = 0
KFR1 201522Z 24014KT 01/M04 A3016 RMK A01 T00141038  RH  069%=      5-min Rain = 0
KFR1 201523Z 24013KT 01/M04 A3016 RMK A01 T00141038  RH  068%=      5-min Rain = 0
KFR1 201524Z 24012KT 01/M04 A3016 RMK A01 T00141038  RH  068%=      5-min Rain = 0
KFR1 201525Z 24015KT 01/M04 A3016 RMK A01 T00141038  RH  068%=      5-min Rain = 0
KFR1 201526Z 24014KT 01/M04 A3016 RMK A01 T00141038  RH  068%=      5-min Rain = 0
KFR1 201527Z 24011KT 01/M04 A3016 RMK A01 T00141038  RH  068%=      5-min Rain = 0
KFR1 201528Z 24012KT 01/M04 A3016 RMK A01 T00141038  RH  068%=      5-min Rain = 0
KFR1 201529Z 24012KT 01/M04 A3016 RMK A01 T00141038  RH  068%=      5-min Rain = 0
KFR1 201530Z 25012KT 01/M04 A3016 RMK A01 T00141037  RH  068%=      5-min Rain = 0
KFR1 201531Z 25013KT 02/M04 A3016 RMK A01 T00151037  RH  068%=      5-min Rain = 0
KFR1 201532Z 25014KT 01/M04 A3016 RMK A01 T00141038  RH  068%=      5-min Rain = 0
KFR1 201533Z 24014KT 01/M04 A3016 RMK A01 T00141038  RH  068%=      5-min Rain = 0
KFR1 201534Z 25014KT 01/M04 A3016 RMK A01 T00141038  RH  068%=      5-min Rain = 0
KFR1 201535Z 24013KT 02/M04 A3016 RMK A01 T00151038  RH  068%=      5-min Rain = 0
KFR1 201536Z 25015KT 01/M04 A3016 RMK A01 T00141038  RH  068%=      5-min Rain = 0
KFR1 201537Z 24014KT 01/M04 A3016 RMK A01 T00141038  RH  068%=      5-min Rain = 0
KFR1 201538Z 25014KT 02/M04 A3016 RMK A01 T00151038  RH  068%=      5-min Rain = 0
KFR1 201539Z 24013KT 02/M04 A3016 RMK A01 T00161037  RH  068%=      5-min Rain = 0
KFR1 201540Z 24014KT 02/M04 A3016 RMK A01 T00171036  RH  068%=      5-min Rain = 0
KFR1 201541Z 24013KT 02/M04 A3016 RMK A01 T00171036  RH  068%=      5-min Rain = 0
KFR1 201542Z 24012KT 02/M04 A3016 RMK A01 T00181036  RH  067%=      5-min Rain = 0
KFR1 201543Z 24011KT 02/M04 A3016 RMK A01 T00181037  RH  067%=      5-min Rain = 0
KFR1 201544Z 23014KT 02/M04 A3016 RMK A01 T00181036  RH  067%=      5-min Rain = 0
KFR1 201545Z 23011KT 02/M04 A3016 RMK A01 T00181037  RH  067%=      5-min Rain = 0
KFR1 201546Z 24012KT 02/M04 A3016 RMK A01 T00191035  RH  067%=      5-min Rain = 0
KFR1 201547Z 24012KT 02/M04 A3016 RMK A01 T00201035  RH  067%=      5-min Rain = 0
KFR1 201548Z 22014KT 02/M04 A3016 RMK A01 T00201035  RH  067%=      5-min Rain = 0
KFR1 201549Z 23013KT 02/M04 A3016 RMK A01 T00201036  RH  066%=      5-min Rain = 0
KFR1 201550Z 24012KT 02/M04 A3016 RMK A01 T00201036  RH  066%=      5-min Rain = 0
KFR1 201551Z 23013KT 02/M04 A3016 RMK A01 T00201036  RH  066%=      5-min Rain = 0
KFR1 201552Z 23010KT 02/M04 A3016 RMK A01 T00211036  RH  066%=      5-min Rain = 0
KFR1 201553Z 24012KT 02/M04 A3016 RMK A01 T00221035  RH  066%=      5-min Rain = 0
KFR1 201554Z 23012KT 02/M04 A3016 RMK A01 T00231035  RH  066%=      5-min Rain = 0
KFR1 201555Z 23009KT 02/M04 A3016 RMK A01 T00241035  RH  065%=      5-min Rain = 0
KFR1 201556Z 24009KT 02/M03 A3016 RMK A01 T00241034  RH  065%=      5-min Rain = 0
KFR1 201557Z 24012KT 03/M03 A3016 RMK A01 T00251034  RH  065%=      5-min Rain = 0
KFR1 201558Z 23011KT 03/M04 A3016 RMK A01 T00251035  RH  065%=      5-min Rain = 0
KFR1 201559Z 23011KT 03/M04 A3016 RMK A01 T00251035  RH  064%=      5-min Rain = 0
KFR1 201600Z 24011KT 03/M04 A3016 RMK A01 T00251035  RH  065%=      5-min Rain = 0
KFR1 201601Z 24010KT 03/M03 A3017 RMK A01 T00261034  RH  065%=      5-min Rain = 0
KFR1 201602Z 24009KT 03/M03 A3017 RMK A01 T00271034  RH  064%=      5-min Rain = 0
KFR1 201603Z 24011KT 03/M03 A3017 RMK A01 T00291033  RH  064%=      5-min Rain = 0
KFR1 201604Z 24009KT 03/M03 A3017 RMK A01 T00301034  RH  063%=      5-min Rain = 0
KFR1 201605Z 24008KT 03/M03 A3017 RMK A01 T00301034  RH  063%=      5-min Rain = 0
KFR1 201606Z 24007KT 03/M03 A3018 RMK A01 T00301034  RH  063%=      5-min Rain = 0
KFR1 201607Z 24008KT 03/M03 A3018 RMK A01 T00301033  RH  063%=      5-min Rain = 0
KFR1 201608Z 25009KT 03/M03 A3018 RMK A01 T00311033  RH  063%=      5-min Rain = 0
KFR1 201609Z 25007KT 03/M03 A3018 RMK A01 T00321033  RH  062%=      5-min Rain = 0
KFR1 201610Z 23009KT 03/M03 A3018 RMK A01 T00331032  RH  062%=      5-min Rain = 0
KFR1 201611Z 23009KT 03/M03 A3018 RMK A01 T00341033  RH  061%=      5-min Rain = 0
KFR1 201612Z 24009KT 03/M03 A3018 RMK A01 T00341034  RH  061%=      5-min Rain = 0
KFR1 201613Z 24010KT 03/M03 A3018 RMK A01 T00341033  RH  061%=      5-min Rain = 0
KFR1 201614Z 25008KT 03/M03 A3018 RMK A01 T00341034  RH  061%=      5-min Rain = 0
KFR1 201615Z 25009KT 03/M03 A3018 RMK A01 T00341034  RH  061%=      5-min Rain = 0
KFR1 201616Z 24007KT 03/M03 A3017 RMK A01 T00341034  RH  061%=      5-min Rain = 0
KFR1 201617Z 24007KT 04/M03 A3017 RMK A01 T00361032  RH  061%=      5-min Rain = 0
KFR1 201618Z 24008KT 04/M03 A3017 RMK A01 T00381031  RH  061%=      5-min Rain = 0
KFR1 201619Z 24007KT 04/M03 A3017 RMK A01 T00381033  RH  060%=      5-min Rain = 0
KFR1 201620Z 24009KT 04/M03 A3017 RMK A01 T00381033  RH  060%=      5-min Rain = 0
KFR1 201621Z 24009KT 04/M03 A3017 RMK A01 T00391033  RH  060%=      5-min Rain = 0
KFR1 201622Z 24009KT 04/M03 A3017 RMK A01 T00401033  RH  059%=      5-min Rain = 0
KFR1 201623Z 23009KT 04/M03 A3017 RMK A01 T00391033  RH  059%=      5-min Rain = 0
KFR1 201624Z 24008KT 04/M03 A3017 RMK A01 T00391031  RH  060%=      5-min Rain = 0
KFR1 201625Z 22008KT 04/M03 A3017 RMK A01 T00411031  RH  059%=      5-min Rain = 0
KFR1 201626Z 23010KT 04/M03 A3017 RMK A01 T00421031  RH  059%=      5-min Rain = 0
KFR1 201627Z 23007KT 04/M03 A3016 RMK A01 T00421032  RH  059%=      5-min Rain = 0
KFR1 201628Z 23008KT 04/M03 A3016 RMK A01 T00421030  RH  059%=      5-min Rain = 0
KFR1 201629Z 23009KT 04/M03 A3016 RMK A01 T00431032  RH  058%=      5-min Rain = 0
KFR1 201630Z 24008KT 04/M03 A3016 RMK A01 T00411033  RH  058%=      5-min Rain = 0
KFR1 201631Z 22008KT 04/M03 A3016 RMK A01 T00411032  RH  059%=      5-min Rain = 0
KFR1 201632Z 22008KT 04/M03 A3016 RMK A01 T00431031  RH  059%=      5-min Rain = 0
KFR1 201633Z 24005KT 04/M03 A3016 RMK A01 T00431031  RH  059%=      5-min Rain = 0
KFR1 201634Z 24007KT 05/M03 A3016 RMK A01 T00451029  RH  058%=      5-min Rain = 0
KFR1 201635Z 25007KT 05/M03 A3016 RMK A01 T00451031  RH  058%=      5-min Rain = 0
KFR1 201636Z 25007KT 04/M03 A3016 RMK A01 T00431032  RH  058%=      5-min Rain = 0
KFR1 201637Z 23006KT 04/M03 A3016 RMK A01 T00441031  RH  058%=      5-min Rain = 0
KFR1 201638Z 23007KT 05/M03 A3016 RMK A01 T00451031  RH  058%=      5-min Rain = 0
KFR1 201639Z 25007KT 05/M03 A3016 RMK A01 T00461030  RH  058%=      5-min Rain = 0
KFR1 201640Z 26008KT 05/M03 A3016 RMK A01 T00461031  RH  057%=      5-min Rain = 0
KFR1 201641Z 27008KT 05/M03 A3016 RMK A01 T00461032  RH  057%=      5-min Rain = 0
KFR1 201642Z 25006KT 05/M03 A3016 RMK A01 T00471031  RH  057%=      5-min Rain = 0
KFR1 201643Z 24010KT 05/M03 A3016 RMK A01 T00491032  RH  056%=      5-min Rain = 0
KFR1 201644Z 25010KT 05/M03 A3016 RMK A01 T00491033  RH  055%=      5-min Rain = 0
KFR1 201645Z 24010KT 05/M03 A3016 RMK A01 T00501033  RH  055%=      5-min Rain = 0
KFR1 201646Z 25008KT 05/M03 A3016 RMK A01 T00501034  RH  055%=      5-min Rain = 0
KFR1 201647Z 25009KT 05/M03 A3016 RMK A01 T00521033  RH  054%=      5-min Rain = 0
KFR1 201648Z 25007KT 05/M04 A3016 RMK A01 T00511035  RH  054%=      5-min Rain = 0
KFR1 201649Z 25009KT 05/M03 A3016 RMK A01 T00521032  RH  055%=      5-min Rain = 0
KFR1 201650Z 24011KT 05/M03 A3016 RMK A01 T00531033  RH  054%=      5-min Rain = 0
KFR1 201651Z 24010KT 05/M03 A3016 RMK A01 T00531033  RH  054%=      5-min Rain = 0
KFR1 201652Z 24010KT 05/M03 A3016 RMK A01 T00531034  RH  054%=      5-min Rain = 0
KFR1 201653Z 23010KT 05/M04 A3015 RMK A01 T00521035  RH  054%=      5-min Rain = 0
KFR1 201654Z 23010KT 05/M03 A3015 RMK A01 T00521033  RH  054%=      5-min Rain = 0
KFR1 201655Z 23010KT 05/M03 A3015 RMK A01 T00541032  RH  054%=      5-min Rain = 0
KFR1 201656Z 23010KT 05/M03 A3015 RMK A01 T00541033  RH  054%=      5-min Rain = 0
KFR1 201657Z 24009KT 05/M03 A3015 RMK A01 T00541033  RH  054%=      5-min Rain = 0
KFR1 201658Z 25009KT 05/M03 A3015 RMK A01 T00541033  RH  054%=      5-min Rain = 0
KFR1 201659Z 24007KT 05/M03 A3015 RMK A01 T00541033  RH  053%=      5-min Rain = 0
KFR1 201700Z 24009KT 06/M03 A3015 RMK A01 T00561031  RH  053%=      5-min Rain = 0
KFR1 201701Z 22011KT 06/M03 A3015 RMK A01 T00571032  RH  053%=      5-min Rain = 0
KFR1 201702Z 22010KT 06/M03 A3015 RMK A01 T00571032  RH  053%=      5-min Rain = 0
KFR1 201703Z 22008KT 06/M03 A3015 RMK A01 T00571032  RH  053%=      5-min Rain = 0
KFR1 201704Z 23010KT 06/M03 A3015 RMK A01 T00571033  RH  052%=      5-min Rain = 0
KFR1 201705Z 23009KT 06/M03 A3015 RMK A01 T00561033  RH  053%=      5-min Rain = 0
KFR1 201706Z 23010KT 06/M03 A3015 RMK A01 T00571032  RH  053%=      5-min Rain = 0
KFR1 201707Z 23007KT 06/M03 A3015 RMK A01 T00571033  RH  052%=      5-min Rain = 0
KFR1 201708Z 25008KT 06/M03 A3015 RMK A01 T00581032  RH  052%=      5-min Rain = 0
KFR1 201709Z 25009KT 06/M03 A3015 RMK A01 T00591033  RH  052%=      5-min Rain = 0
KFR1 201710Z 25007KT 06/M04 A3015 RMK A01 T00571035  RH  052%=      5-min Rain = 0
KFR1 201711Z 25007KT 06/M03 A3015 RMK A01 T00561034  RH  052%=      5-min Rain = 0
KFR1 201712Z 24007KT 06/M03 A3016 RMK A01 T00581031  RH  053%=      5-min Rain = 0
KFR1 201713Z 25007KT 06/M03 A3016 RMK A01 T00601031  RH  052%=      5-min Rain = 0
KFR1 201714Z 24008KT 06/M03 A3016 RMK A01 T00591033  RH  052%=      5-min Rain = 0
KFR1 201715Z 26007KT 06/M03 A3016 RMK A01 T00591033  RH  052%=      5-min Rain = 0
KFR1 201716Z 25007KT 06/M03 A3016 RMK A01 T00591033  RH  052%=      5-min Rain = 0
KFR1 201717Z 25007KT 06/M03 A3016 RMK A01 T00591033  RH  052%=      5-min Rain = 0
KFR1 201718Z 25006KT 06/M03 A3016 RMK A01 T00591033  RH  052%=      5-min Rain = 0
KFR1 201719Z 24005KT 06/M03 A3016 RMK A01 T00591032  RH  052%=      5-min Rain = 0
KFR1 201720Z 25006KT 06/M03 A3016 RMK A01 T00611030  RH  052%=      5-min Rain = 0
KFR1 201721Z 25006KT 06/M03 A3016 RMK A01 T00631031  RH  051%=      5-min Rain = 0
KFR1 201722Z 24007KT 06/M03 A3016 RMK A01 T00631032  RH  051%=      5-min Rain = 0
KFR1 201723Z 25007KT 06/M03 A3016 RMK A01 T00631032  RH  051%=      5-min Rain = 0
KFR1 201724Z 25008KT 06/M03 A3016 RMK A01 T00621034  RH  050%=      5-min Rain = 0
KFR1 201725Z 25007KT 06/M04 A3016 RMK A01 T00611035  RH  050%=      5-min Rain = 0
KFR1 201726Z 24006KT 06/M04 A3016 RMK A01 T00601035  RH  050%=      5-min Rain = 0
KFR1 201727Z 23007KT 06/M03 A3016 RMK A01 T00611034  RH  051%=      5-min Rain = 0
KFR1 201728Z 23006KT 06/M03 A3016 RMK A01 T00631034  RH  050%=      5-min Rain = 0
KFR1 201729Z 26006KT 07/M03 A3016 RMK A01 T00661030  RH  050%=      5-min Rain = 0
KFR1 201730Z 25007KT 07/M03 A3016 RMK A01 T00671032  RH  049%=      5-min Rain = 0
KFR1 201731Z 23007KT 07/M03 A3015 RMK A01 T00661033  RH  049%=      5-min Rain = 0
KFR1 201732Z 25008KT 07/M03 A3015 RMK A01 T00651033  RH  050%=      5-min Rain = 0
KFR1 201733Z 25006KT 07/M03 A3015 RMK A01 T00651033  RH  049%=      5-min Rain = 0
KFR1 201734Z 24007KT 07/M03 A3015 RMK A01 T00671032  RH  049%=      5-min Rain = 0
KFR1 201735Z 25008KT 07/M03 A3015 RMK A01 T00671033  RH  049%=      5-min Rain = 0
KFR1 201736Z 24007KT 07/M03 A3015 RMK A01 T00681032  RH  049%=      5-min Rain = 0
KFR1 201737Z 22007KT 07/M03 A3015 RMK A01 T00691031  RH  049%=      5-min Rain = 0
KFR1 201738Z 24007KT 07/M03 A3015 RMK A01 T00701031  RH  049%=      5-min Rain = 0
KFR1 201739Z 24006KT 07/M03 A3015 RMK A01 T00711031  RH  048%=      5-min Rain = 0
KFR1 201740Z 25006KT 07/M03 A3016 RMK A01 T00711031  RH  048%=      5-min Rain = 0
KFR1 201741Z 25006KT 07/M03 A3016 RMK A01 T00731030  RH  048%=      5-min Rain = 0
KFR1 201742Z 24007KT 08/M03 A3015 RMK A01 T00761030  RH  047%=      5-min Rain = 0
KFR1 201743Z 23006KT 07/M03 A3015 RMK A01 T00741034  RH  046%=      5-min Rain = 0
KFR1 201744Z 22007KT 07/M03 A3015 RMK A01 T00711034  RH  047%=      5-min Rain = 0
KFR1 201745Z 22007KT 07/M03 A3015 RMK A01 T00681034  RH  048%=      5-min Rain = 0
KFR1 201746Z 23007KT 07/M03 A3015 RMK A01 T00681032  RH  049%=      5-min Rain = 0
KFR1 201747Z 22008KT 07/M03 A3015 RMK A01 T00711031  RH  048%=      5-min Rain = 0
KFR1 201748Z 22009KT 07/M03 A3015 RMK A01 T00711032  RH  048%=      5-min Rain = 0
KFR1 201749Z 22010KT 07/M03 A3014 RMK A01 T00711033  RH  048%=      5-min Rain = 0
KFR1 201750Z 22006KT 07/M03 A3015 RMK A01 T00711033  RH  048%=      5-min Rain = 0
KFR1 201751Z 22005KT 07/M03 A3014 RMK A01 T00711032  RH  048%=      5-min Rain = 0
KFR1 201752Z 22009KT 07/M03 A3014 RMK A01 T00731031  RH  048%=      5-min Rain = 0
KFR1 201753Z 23008KT 07/M03 A3014 RMK A01 T00741032  RH  047%=      5-min Rain = 0
KFR1 201754Z 22008KT 07/M03 A3014 RMK A01 T00741031  RH  047%=      5-min Rain = 0
KFR1 201755Z 22010KT 08/M03 A3014 RMK A01 T00761031  RH  047%=      5-min Rain = 0
KFR1 201756Z 22009KT 08/M03 A3014 RMK A01 T00761031  RH  047%=      5-min Rain = 0
KFR1 201757Z 23008KT 08/M03 A3014 RMK A01 T00751032  RH  047%=      5-min Rain = 0
KFR1 201758Z 23009KT 08/M03 A3014 RMK A01 T00771030  RH  046%=      5-min Rain = 0
KFR1 201759Z 22008KT 08/M03 A3014 RMK A01 T00801031  RH  046%=      5-min Rain = 0
KFR1 201800Z 22009KT 08/M03 A3014 RMK A01 T00791033  RH  045%=      5-min Rain = 0
KFR1 201801Z 22010KT 08/M03 A3014 RMK A01 T00781031  RH  046%=      5-min Rain = 0
KFR1 201802Z 22006KT 08/M03 A3014 RMK A01 T00781031  RH  046%=      5-min Rain = 0
KFR1 201803Z 23007KT 08/M03 A3014 RMK A01 T00781032  RH  046%=      5-min Rain = 0
KFR1 201804Z 23009KT 08/M03 A3014 RMK A01 T00781032  RH  045%=      5-min Rain = 0
KFR1 201805Z 22009KT 08/M03 A3014 RMK A01 T00781033  RH  045%=      5-min Rain = 0
KFR1 201806Z 24009KT 08/M03 A3014 RMK A01 T00781033  RH  045%=      5-min Rain = 0
KFR1 201807Z 24007KT 08/M03 A3014 RMK A01 T00791033  RH  045%=      5-min Rain = 0
KFR1 201808Z 23009KT 08/M03 A3014 RMK A01 T00801033  RH  045%=      5-min Rain = 0
KFR1 201809Z 23009KT 08/M03 A3014 RMK A01 T00801033  RH  045%=      5-min Rain = 0
KFR1 201810Z 23007KT 08/M03 A3014 RMK A01 T00821032  RH  044%=      5-min Rain = 0
KFR1 201811Z 24008KT 08/M03 A3014 RMK A01 T00831032  RH  044%=      5-min Rain = 0
KFR1 201812Z 23008KT 09/M03 A3014 RMK A01 T00851030  RH  044%=      5-min Rain = 0
KFR1 201813Z 23009KT 09/M03 A3014 RMK A01 T00861032  RH  043%=      5-min Rain = 0
KFR1 201814Z 22009KT 08/M03 A3014 RMK A01 T00841032  RH  044%=      5-min Rain = 0
KFR1 201815Z 22009KT 08/M03 A3014 RMK A01 T00831032  RH  044%=      5-min Rain = 0
KFR1 201816Z 22009KT 08/M03 A3014 RMK A01 T00811034  RH  044%=      5-min Rain = 0
KFR1 201817Z 24007KT 08/M04 A3014 RMK A01 T00791035  RH  044%=      5-min Rain = 0
KFR1 201818Z 23008KT 08/M03 A3014 RMK A01 T00801033  RH  045%=      5-min Rain = 0
KFR1 201819Z 22010KT 08/M03 A3013 RMK A01 T00841031  RH  044%=      5-min Rain = 0
KFR1 201820Z 22009KT 09/M03 A3013 RMK A01 T00851032  RH  043%=      5-min Rain = 0
KFR1 201821Z 23007KT 08/M03 A3013 RMK A01 T00841033  RH  044%=      5-min Rain = 0
KFR1 201822Z 23007KT 08/M03 A3013 RMK A01 T00841032  RH  044%=      5-min Rain = 0
KFR1 201823Z 23008KT 09/M03 A3013 RMK A01 T00851032  RH  043%=      5-min Rain = 0
KFR1 201824Z 24010KT 09/M03 A3013 RMK A01 T00851033  RH  043%=      5-min Rain = 0
KFR1 201825Z 23009KT 09/M03 A3013 RMK A01 T00861032  RH  043%=      5-min Rain = 0
KFR1 201826Z 24008KT 09/M03 A3013 RMK A01 T00871033  RH  043%=      5-min Rain = 0
KFR1 201827Z 22007KT 09/M03 A3013 RMK A01 T00871033  RH  043%=      5-min Rain = 0
KFR1 201828Z 23006KT 09/M03 A3013 RMK A01 T00871032  RH  043%=      5-min Rain = 0
KFR1 201829Z 23007KT 09/M03 A3013 RMK A01 T00881031  RH  043%=      5-min Rain = 0
KFR1 201830Z 23007KT 09/M03 A3013 RMK A01 T00881033  RH  042%=      5-min Rain = 0
KFR1 201831Z 23007KT 09/M03 A3013 RMK A01 T00891032  RH  042%=      5-min Rain = 0
KFR1 201832Z 25006KT 09/M03 A3013 RMK A01 T00901033  RH  042%=      5-min Rain = 0
KFR1 201833Z 25007KT 09/M03 A3013 RMK A01 T00911032  RH  042%=      5-min Rain = 0
KFR1 201834Z 23010KT 09/M03 A3013 RMK A01 T00941031  RH  041%=      5-min Rain = 0
KFR1 201835Z 22009KT 09/M03 A3013 RMK A01 T00931033  RH  041%=      5-min Rain = 0
KFR1 201836Z 23009KT 09/M03 A3013 RMK A01 T00911033  RH  042%=      5-min Rain = 0
KFR1 201837Z 22008KT 09/M03 A3013 RMK A01 T00911031  RH  042%=      5-min Rain = 0
KFR1 201838Z 22009KT 09/M03 A3012 RMK A01 T00921032  RH  042%=      5-min Rain = 0
KFR1 201839Z 22008KT 09/M03 A3013 RMK A01 T00921031  RH  042%=      5-min Rain = 0
KFR1 201840Z 22009KT 09/M03 A3012 RMK A01 T00931031  RH  042%=      5-min Rain = 0
KFR1 201841Z 21009KT 09/M03 A3012 RMK A01 T00901034  RH  041%=      5-min Rain = 0
KFR1 201842Z 22008KT 09/M03 A3012 RMK A01 T00881034  RH  042%=      5-min Rain = 0
KFR1 201843Z 21007KT 09/M03 A3012 RMK A01 T00881034  RH  042%=      5-min Rain = 0
KFR1 201844Z 23005KT 09/M03 A3012 RMK A01 T00881034  RH  042%=      5-min Rain = 0
KFR1 201845Z 23007KT 09/M03 A3012 RMK A01 T00901031  RH  042%=      5-min Rain = 0
KFR1 201846Z 22007KT 09/M03 A3012 RMK A01 T00921034  RH  041%=      5-min Rain = 0
KFR1 201847Z 22006KT 09/M03 A3012 RMK A01 T00921033  RH  041%=      5-min Rain = 0
KFR1 201848Z 22006KT 09/M03 A3012 RMK A01 T00931032  RH  041%=      5-min Rain = 0
KFR1 201849Z 22007KT 09/M03 A3012 RMK A01 T00941031  RH  041%=      5-min Rain = 0
KFR1 201850Z 22007KT 09/M03 A3012 RMK A01 T00931032  RH  041%=      5-min Rain = 0
KFR1 201851Z 22006KT 09/M03 A3012 RMK A01 T00911033  RH  042%=      5-min Rain = 0
KFR1 201852Z 23004KT 09/M03 A3012 RMK A01 T00891033  RH  042%=      5-min Rain = 0
KFR1 201853Z 22004KT 09/M03 A3012 RMK A01 T00891032  RH  043%=      5-min Rain = 0
KFR1 201854Z 22004KT 09/M03 A3012 RMK A01 T00911030  RH  042%=      5-min Rain = 0
KFR1 201855Z 22007KT 09/M03 A3012 RMK A01 T00941029  RH  042%=      5-min Rain = 0
KFR1 201856Z 23006KT 10/M03 A3012 RMK A01 T00961031  RH  041%=      5-min Rain = 0
KFR1 201857Z 20004KT 10/M03 A3011 RMK A01 T00971031  RH  041%=      5-min Rain = 0
KFR1 201858Z 22006KT 10/M03 A3011 RMK A01 T00971031  RH  040%=      5-min Rain = 0
KFR1 201859Z 21007KT 10/M03 A3011 RMK A01 T00981031  RH  040%=      5-min Rain = 0
KFR1 201900Z 22007KT 10/M03 A3011 RMK A01 T00981032  RH  040%=      5-min Rain = 0
KFR1 201901Z 23007KT 10/M03 A3011 RMK A01 T00991030  RH  040%=      5-min Rain = 0
KFR1 201902Z 21006KT 10/M03 A3011 RMK A01 T01011030  RH  040%=      5-min Rain = 0
KFR1 201903Z 22006KT 10/M03 A3011 RMK A01 T01011032  RH  039%=      5-min Rain = 0
KFR1 201904Z 23006KT 10/M03 A3011 RMK A01 T01001032  RH  039%=      5-min Rain = 0
KFR1 201905Z 24005KT 10/M03 A3011 RMK A01 T00991034  RH  039%=      5-min Rain = 0
KFR1 201906Z 26007KT 10/M03 A3011 RMK A01 T00981032  RH  040%=      5-min Rain = 0
KFR1 201907Z 27005KT 10/M03 A3011 RMK A01 T00991033  RH  039%=      5-min Rain = 0
KFR1 201908Z 24003KT 10/M03 A3011 RMK A01 T00991033  RH  040%=      5-min Rain = 0
KFR1 201909Z 22005KT 10/M03 A3011 RMK A01 T01001032  RH  040%=      5-min Rain = 0
KFR1 201910Z 23007KT 10/M03 A3011 RMK A01 T00991033  RH  039%=      5-min Rain = 0
KFR1 201911Z 25006KT 10/M03 A3011 RMK A01 T00981032  RH  040%=      5-min Rain = 0
KFR1 201912Z 24005KT 10/M03 A3011 RMK A01 T00981033  RH  039%=      5-min Rain = 0
KFR1 201913Z 24005KT 10/M03 A3011 RMK A01 T00981034  RH  039%=      5-min Rain = 0
KFR1 201914Z 23005KT 10/M03 A3011 RMK A01 T00971034  RH  040%=      5-min Rain = 0
KFR1 201915Z 21005KT 10/M03 A3011 RMK A01 T00961034  RH  040%=      5-min Rain = 0
KFR1 201916Z 20005KT 10/M03 A301 RMK A01 T00971032  RH  040%=      5-min Rain = 0
KFR1 201917Z 21004KT 10/M03 A301 RMK A01 T00981032  RH  040%=      5-min Rain = 0
KFR1 201918Z 23004KT 10/M03 A3011 RMK A01 T00981032  RH  040%=      5-min Rain = 0
KFR1 201919Z 22005KT 10/M03 A301 RMK A01 T00981032  RH  040%=      5-min Rain = 0
KFR1 201920Z 22007KT 10/M03 A301 RMK A01 T00981032  RH  040%=      5-min Rain = 0
KFR1 201921Z 22007KT 10/M03 A301 RMK A01 T00991033  RH  039%=      5-min Rain = 0
KFR1 201922Z 22006KT 10/M03 A301 RMK A01 T00971034  RH  039%=      5-min Rain = 0
KFR1 201923Z 23006KT 10/M04 A301 RMK A01 T00961035  RH  040%=      5-min Rain = 0
KFR1 201924Z 22007KT 10/M03 A301 RMK A01 T00961033  RH  040%=      5-min Rain = 0
KFR1 201925Z 23006KT 10/M03 A301 RMK A01 T00971032  RH  040%=      5-min Rain = 0
KFR1 201926Z 22006KT 10/M03 A301 RMK A01 T00981033  RH  040%=      5-min Rain = 0
KFR1 201927Z 22005KT 10/M03 A301 RMK A01 T00971034  RH  040%=      5-min Rain = 0
KFR1 201928Z 22005KT 10/M03 A301 RMK A01 T00961033  RH  040%=      5-min Rain = 0
KFR1 201929Z 23008KT 10/M03 A301 RMK A01 T00971032  RH  040%=      5-min Rain = 0
KFR1 201930Z 21007KT 10/M03 A301 RMK A01 T00981033  RH  040%=      5-min Rain = 0
KFR1 201931Z 21008KT 10/M03 A301 RMK A01 T00991033  RH  039%=      5-min Rain = 0
KFR1 201932Z 21008KT 10/M03 A3009 RMK A01 T01001032  RH  039%=      5-min Rain = 0
KFR1 201933Z 21007KT 10/M03 A3009 RMK A01 T01011033  RH  039%=      5-min Rain = 0
KFR1 201934Z 21007KT 10/M03 A3009 RMK A01 T01011033  RH  039%=      5-min Rain = 0
KFR1 201935Z 22006KT 10/M03 A3009 RMK A01 T01011033  RH  039%=      5-min Rain = 0
KFR1 201936Z 22006KT 10/M03 A3009 RMK A01 T01011034  RH  039%=      5-min Rain = 0
KFR1 201937Z 20007KT 10/M03 A3009 RMK A01 T01011034  RH  039%=      5-min Rain = 0
KFR1 201938Z 20005KT 10/M03 A3009 RMK A01 T01021034  RH  038%=      5-min Rain = 0
KFR1 201939Z 21008KT 10/M03 A3009 RMK A01 T01041032  RH  038%=      5-min Rain = 0
KFR1 201940Z 21007KT 11/M03 A3009 RMK A01 T01051033  RH  038%=      5-min Rain = 0
KFR1 201941Z 21007KT 10/M03 A3009 RMK A01 T01041034  RH  038%=      5-min Rain = 0
KFR1 201942Z 21006KT 10/M03 A3009 RMK A01 T01031034  RH  038%=      5-min Rain = 0
KFR1 201943Z 20008KT 10/M03 A3008 RMK A01 T01021034  RH  038%=      5-min Rain = 0
KFR1 201944Z 20006KT 10/M04 A3008 RMK A01 T01021035  RH  038%=      5-min Rain = 0
KFR1 201945Z 20005KT 10/M03 A3008 RMK A01 T01031034  RH  038%=      5-min Rain = 0
KFR1 201946Z 22005KT 11/M03 A3008 RMK A01 T01061033  RH  038%=      5-min Rain = 0
KFR1 201947Z 20006KT 11/M03 A3008 RMK A01 T01071033  RH  037%=      5-min Rain = 0
KFR1 201948Z 20005KT 11/M03 A3008 RMK A01 T01081032  RH  037%=      5-min Rain = 0
KFR1 201949Z 20004KT 11/M03 A3008 RMK A01 T01071033  RH  037%=      5-min Rain = 0
KFR1 201950Z 19005KT 11/M03 A3008 RMK A01 T01071032  RH  038%=      5-min Rain = 0
KFR1 201951Z 19008KT 11/M03 A3008 RMK A01 T01091030  RH  038%=      5-min Rain = 0
KFR1 201952Z 21007KT 11/M03 A3008 RMK A01 T01111031  RH  037%=      5-min Rain = 0
KFR1 201953Z 22008KT 11/M03 A3008 RMK A01 T01111032  RH  037%=      5-min Rain = 0
KFR1 201954Z 23008KT 11/M03 A3008 RMK A01 T01101033  RH  037%=      5-min Rain = 0
KFR1 201955Z 21006KT 11/M03 A3008 RMK A01 T01081034  RH  037%=      5-min Rain = 0
KFR1 201956Z 22007KT 11/M03 A3008 RMK A01 T01061034  RH  037%=      5-min Rain = 0
KFR1 201957Z 23007KT 11/M03 A3008 RMK A01 T01061034  RH  037%=      5-min Rain = 0
KFR1 201958Z 23007KT 11/M04 A3008 RMK A01 T01051035  RH  037%=      5-min Rain = 0
KFR1 201959Z 23005KT 10/M04 A3008 RMK A01 T01041036  RH  037%=      5-min Rain = 0
KFR1 202000Z 21005KT 11/M04 A3008 RMK A01 T01051035  RH  037%=      5-min Rain = 0
KFR1 202001Z 19006KT 11/M04 A3008 RMK A01 T01051035  RH  037%=      5-min Rain = 0
KFR1 202002Z 19006KT 11/M04 A3008 RMK A01 T01051036  RH  037%=      5-min Rain = 0
KFR1 202003Z 20004KT 10/M04 A3008 RMK A01 T01041036  RH  037%=      5-min Rain = 0
KFR1 202004Z 19004KT 10/M04 A3008 RMK A01 T01041036  RH  037%=      5-min Rain = 0
KFR1 202005Z 19004KT 11/M04 A3007 RMK A01 T01051035  RH  037%=      5-min Rain = 0
KFR1 202006Z 19005KT 11/M03 A3007 RMK A01 T01061034  RH  037%=      5-min Rain = 0
KFR1 202007Z 21005KT 11/M03 A3008 RMK A01 T01061034  RH  037%=      5-min Rain = 0
KFR1 202008Z 21006KT 11/M03 A3008 RMK A01 T01061033  RH  038%=      5-min Rain = 0
KFR1 202009Z 22007KT 11/M03 A3007 RMK A01 T01061033  RH  038%=      5-min Rain = 0
KFR1 202010Z 20006KT 11/M03 A3007 RMK A01 T01071032  RH  038%=      5-min Rain = 0
KFR1 202011Z 21004KT 11/M03 A3007 RMK A01 T01081033  RH  037%=      5-min Rain = 0
KFR1 202012Z 20003KT 11/M03 A3007 RMK A01 T01081034  RH  037%=      5-min Rain = 0
KFR1 202013Z 20005KT 11/M03 A3007 RMK A01 T01071034  RH  037%=      5-min Rain = 0
KFR1 202014Z 20005KT 11/M03 A3007 RMK A01 T01061034  RH  037%=      5-min Rain = 0
KFR1 202015Z 21006KT 11/M04 A3007 RMK A01 T01071035  RH  037%=      5-min Rain = 0
KFR1 202016Z 22006KT 11/M04 A3007 RMK A01 T01071036  RH  036%=      5-min Rain = 0
KFR1 202017Z 22005KT 11/M04 A3007 RMK A01 T01071036  RH  037%=      5-min Rain = 0
KFR1 202018Z 22004KT 11/M04 A3007 RMK A01 T01071036  RH  037%=      5-min Rain = 0
KFR1 202019Z 22005KT 11/M04 A3007 RMK A01 T01061037  RH  036%=      5-min Rain = 0
KFR1 202020Z 24005KT 11/M04 A3007 RMK A01 T01061036  RH  037%=      5-min Rain = 0
KFR1 202021Z 24004KT 11/M04 A3007 RMK A01 T01061036  RH  037%=      5-min Rain = 0
KFR1 202022Z 22004KT 11/M03 A3007 RMK A01 T01071034  RH  037%=      5-min Rain = 0
KFR1 202023Z 21004KT 11/M03 A3007 RMK A01 T01091034  RH  037%=      5-min Rain = 0
KFR1 202024Z 22005KT 11/M04 A3007 RMK A01 T01081036  RH  036%=      5-min Rain = 0
KFR1 202025Z 22005KT 11/M04 A3007 RMK A01 T01081035  RH  037%=      5-min Rain = 0
KFR1 202026Z 22004KT 11/M04 A3007 RMK A01 T01071035  RH  037%=      5-min Rain = 0
KFR1 202027Z 21003KT 11/M04 A3007 RMK A01 T01071035  RH  037%=      5-min Rain = 0
KFR1 202028Z 21005KT 11/M03 A3007 RMK A01 T01081033  RH  037%=      5-min Rain = 0
KFR1 202029Z 21006KT 11/M04 A3007 RMK A01 T01091035  RH  036%=      5-min Rain = 0
KFR1 202030Z 21005KT 11/M03 A3007 RMK A01 T01091033  RH  037%=      5-min Rain = 0
KFR1 202031Z 21006KT 11/M03 A3007 RMK A01 T01111033  RH  036%=      5-min Rain = 0
KFR1 202032Z 23006KT 11/M03 A3007 RMK A01 T01121033  RH  036%=      5-min Rain = 0
KFR1 202033Z 23006KT 11/M03 A3006 RMK A01 T01121033  RH  036%=      5-min Rain = 0
KFR1 202034Z 22006KT 11/M03 A3006 RMK A01 T01121034  RH  036%=      5-min Rain = 0
KFR1 202035Z 22004KT 11/M04 A3006 RMK A01 T01111035  RH  036%=      5-min Rain = 0
KFR1 202036Z 22004KT 11/M04 A3006 RMK A01 T01101035  RH  036%=      5-min Rain = 0
KFR1 202037Z 20004KT 11/M03 A3006 RMK A01 T01111034  RH  036%=      5-min Rain = 0
KFR1 202038Z 21004KT 11/M03 A3006 RMK A01 T01121034  RH  036%=      5-min Rain = 0
KFR1 202039Z 21003KT 11/M03 A3006 RMK A01 T01121034  RH  036%=      5-min Rain = 0
KFR1 202040Z 22003KT 11/M04 A3006 RMK A01 T01131035  RH  035%=      5-min Rain = 0
KFR1 202041Z 22005KT 11/M03 A3006 RMK A01 T01131033  RH  036%=      5-min Rain = 0
KFR1 202042Z 22004KT 11/M03 A3006 RMK A01 T01131034  RH  035%=      5-min Rain = 0
KFR1 202043Z 20003KT 11/M03 A3006 RMK A01 T01141034  RH  035%=      5-min Rain = 0
KFR1 202044Z 18004KT 12/M03 A3006 RMK A01 T01151034  RH  035%=      5-min Rain = 0
KFR1 202045Z 19005KT 12/M04 A3006 RMK A01 T01151035  RH  035%=      5-min Rain = 0
KFR1 202046Z 20004KT 12/M04 A3006 RMK A01 T01151035  RH  035%=      5-min Rain = 0
KFR1 202047Z 19004KT 12/M03 A3006 RMK A01 T01151034  RH  035%=      5-min Rain = 0
KFR1 202048Z 18002KT 12/M03 A3006 RMK A01 T01161033  RH  035%=      5-min Rain = 0
KFR1 202049Z 20001KT 12/M03 A3006 RMK A01 T01181034  RH  034%=      5-min Rain = 0
KFR1 202050Z 19004KT 12/M03 A3005 RMK A01 T01201034  RH  034%=      5-min Rain = 0
KFR1 202051Z 16004KT 12/M04 A3005 RMK A01 T01221036  RH  033%=      5-min Rain = 0
KFR1 202052Z 18004KT 12/M04 A3005 RMK A01 T01211037  RH  033%=      5-min Rain = 0
KFR1 202053Z 18004KT 12/M04 A3005 RMK A01 T01211036  RH  033%=      5-min Rain = 0
KFR1 202054Z 15002KT 12/M04 A3005 RMK A01 T01201037  RH  033%=      5-min Rain = 0
KFR1 202055Z 16001KT 12/M04 A3005 RMK A01 T01201036  RH  033%=      5-min Rain = 0
KFR1 202056Z 17000KT 12/M04 A3005 RMK A01 T01211035  RH  034%=      5-min Rain = 0
KFR1 202057Z 13001KT 12/M03 A3005 RMK A01 T01231034  RH  033%=      5-min Rain = 0
KFR1 202058Z 19002KT 12/M03 A3005 RMK A01 T01241034  RH  033%=      5-min Rain = 0
KFR1 202059Z 21002KT 13/M03 A3005 RMK A01 T01261033  RH  033%=      5-min Rain = 0
KFR1 202100Z 16002KT 13/M03 A3005 RMK A01 T01261033  RH  033%=      5-min Rain = 0
KFR1 202101Z 14002KT 13/M03 A3005 RMK A01 T01261033  RH  033%=      5-min Rain = 0
KFR1 202102Z 15004KT 13/M03 A3005 RMK A01 T01271033  RH  033%=      5-min Rain = 0
KFR1 202103Z 15002KT 13/M03 A3005 RMK A01 T01271034  RH  032%=      5-min Rain = 0
KFR1 202104Z 15000KT 13/M03 A3005 RMK A01 T01261034  RH  033%=      5-min Rain = 0
KFR1 202105Z 12002KT 13/M03 A3004 RMK A01 T01251034  RH  033%=      5-min Rain = 0
KFR1 202106Z 16002KT 13/M03 A3004 RMK A01 T01251034  RH  033%=      5-min Rain = 0
KFR1 202107Z 16005KT 12/M03 A3004 RMK A01 T01241034  RH  033%=      5-min Rain = 0
KFR1 202108Z 17002KT 12/M03 A3004 RMK A01 T01231032  RH  034%=      5-min Rain = 0
KFR1 202109Z 18003KT 12/M03 A3004 RMK A01 T01241032  RH  034%=      5-min Rain = 0
KFR1 202110Z 19005KT 13/M03 A3004 RMK A01 T01251029  RH  034%=      5-min Rain = 0
KFR1 202111Z 20003KT 13/M03 A3004 RMK A01 T01261030  RH  034%=      5-min Rain = 0
KFR1 202112Z 18002KT 13/M03 A3004 RMK A01 T01261030  RH  034%=      5-min Rain = 0
KFR1 202113Z 17004KT 13/M03 A3004 RMK A01 T01261029  RH  034%=      5-min Rain = 0
KFR1 202114Z 17003KT 13/M03 A3004 RMK A01 T01281029  RH  033%=      5-min Rain = 0
KFR1 202115Z 17003KT 13/M03 A3004 RMK A01 T01281030  RH  033%=      5-min Rain = 0
KFR1 202116Z 19004KT 13/M03 A3004 RMK A01 T01281029  RH  034%=      5-min Rain = 0
KFR1 202117Z 20004KT 13/M03 A3004 RMK A01 T01281029  RH  033%=      5-min Rain = 0
KFR1 202118Z 21004KT 13/M03 A3004 RMK A01 T01271030  RH  033%=      5-min Rain = 0
KFR1 202119Z 17003KT 13/M03 A3004 RMK A01 T01271028  RH  034%=      5-min Rain = 0
KFR1 202120Z 19003KT 13/M03 A3004 RMK A01 T01271028  RH  034%=      5-min Rain = 0
KFR1 202121Z 17002KT 13/M03 A3004 RMK A01 T01261029  RH  034%=      5-min Rain = 0
KFR1 202122Z 18004KT 13/M03 A3004 RMK A01 T01261028  RH  034%=      5-min Rain = 0
KFR1 202123Z 19003KT 13/M03 A3004 RMK A01 T01271027  RH  034%=      5-min Rain = 0
KFR1 202124Z 17004KT 13/M03 A3004 RMK A01 T01281025  RH  034%=      5-min Rain = 0
KFR1 202125Z 18007KT 13/M02 A3004 RMK A01 T01301024  RH  034%=      5-min Rain = 0
KFR1 202126Z 16007KT 13/M03 A3004 RMK A01 T01311025  RH  034%=      5-min Rain = 0
KFR1 202127Z 16006KT 13/M02 A3004 RMK A01 T01301024  RH  034%=      5-min Rain = 0
KFR1 202128Z 16005KT 13/M02 A3004 RMK A01 T01321023  RH  034%=      5-min Rain = 0
KFR1 202129Z 17005KT 13/M02 A3003 RMK A01 T01331022  RH  034%=      5-min Rain = 0
KFR1 202130Z 18004KT 13/M02 A3004 RMK A01 T01341023  RH  034%=      5-min Rain = 0
KFR1 202131Z 16005KT 13/M02 A3004 RMK A01 T01331023  RH  034%=      5-min Rain = 0
KFR1 202132Z 18005KT 13/M02 A3004 RMK A01 T01331022  RH  034%=      5-min Rain = 0
KFR1 202133Z 19006KT 13/M02 A3004 RMK A01 T01331022  RH  034%=      5-min Rain = 0
KFR1 202134Z 20007KT 13/M02 A3004 RMK A01 T01331021  RH  034%=      5-min Rain = 0
KFR1 202135Z 19007KT 13/M02 A3004 RMK A01 T01331021  RH  034%=      5-min Rain = 0
KFR1 202136Z 19005KT 13/M02 A3004 RMK A01 T01321021  RH  034%=      5-min Rain = 0
KFR1 202137Z 16005KT 13/M02 A3004 RMK A01 T01331020  RH  035%=      5-min Rain = 0
KFR1 202138Z 18005KT 13/M02 A3003 RMK A01 T01341019  RH  035%=      5-min Rain = 0
KFR1 202139Z 17006KT 14/M02 A3003 RMK A01 T01361019  RH  034%=      5-min Rain = 0
KFR1 202140Z 16006KT 14/M02 A3003 RMK A01 T01361021  RH  034%=      5-min Rain = 0
KFR1 202141Z 17005KT 14/M02 A3003 RMK A01 T01361020  RH  034%=      5-min Rain = 0
KFR1 202142Z 16005KT 14/M02 A3003 RMK A01 T01371019  RH  034%=      5-min Rain = 0
KFR1 202143Z 17005KT 14/M02 A3003 RMK A01 T01391019  RH  034%=      5-min Rain = 0
KFR1 202144Z 19005KT 14/M02 A3003 RMK A01 T01401019  RH  033%=      5-min Rain = 0
KFR1 202145Z 18007KT 14/M02 A3003 RMK A01 T01411019  RH  033%=      5-min Rain = 0
KFR1 202146Z 20005KT 14/M02 A3003 RMK A01 T01401020  RH  033%=      5-min Rain = 0
KFR1 202147Z 23003KT 14/M02 A3003 RMK A01 T01391021  RH  033%=      5-min Rain = 0
KFR1 202148Z 19004KT 14/M02 A3003 RMK A01 T01381020  RH  034%=      5-min Rain = 0
KFR1 202149Z 15005KT 14/M02 A3003 RMK A01 T01391021  RH  033%=      5-min Rain = 0
KFR1 202150Z 16003KT 14/M02 A3003 RMK A01 T01401024  RH  032%=      5-min Rain = 0
KFR1 202151Z 23003KT 14/M02 A3003 RMK A01 T01401022  RH  032%=      5-min Rain = 0
KFR1 202152Z 25002KT 14/M02 A3003 RMK A01 T01411021  RH  033%=      5-min Rain = 0
KFR1 202153Z 26001KT 14/M02 A3003 RMK A01 T01411020  RH  033%=      5-min Rain = 0
KFR1 202154Z 24002KT 14/M02 A3003 RMK A01 T01421020  RH  033%=      5-min Rain = 0
KFR1 202155Z 30002KT 14/M02 A3003 RMK A01 T01411022  RH  032%=      5-min Rain = 0
KFR1 202156Z 10003KT 14/M02 A3002 RMK A01 T01401023  RH  032%=      5-min Rain = 0
KFR1 202157Z 29004KT 14/M02 A3002 RMK A01 T01401023  RH  032%=      5-min Rain = 0
KFR1 202158Z 27003KT 14/M03 A3003 RMK A01 T01371026  RH  032%=      5-min Rain = 0
KFR1 202159Z 29004KT 13/M03 A3002 RMK A01 T01341027  RH  033%=      5-min Rain = 0
KFR1 202200Z 31003KT 13/M03 A3003 RMK A01 T01311027  RH  033%=      5-min Rain = 0
KFR1 202201Z 28003KT 13/M03 A3003 RMK A01 T01281029  RH  033%=      5-min Rain = 0
KFR1 202202Z 33002KT 13/M03 A3002 RMK A01 T01251027  RH  035%=      5-min Rain = 0
KFR1 202203Z 25003KT 12/M03 A3002 RMK A01 T01241025  RH  035%=      5-min Rain = 0
KFR1 202204Z 23004KT 13/M03 A3003 RMK A01 T01251025  RH  035%=      5-min Rain = 0
KFR1 202205Z 18004KT 13/M03 A3003 RMK A01 T01271025  RH  035%=      5-min Rain = 0
KFR1 202206Z 23003KT 13/M02 A3003 RMK A01 T01301023  RH  034%=      5-min Rain = 0
KFR1 202207Z 22003KT 13/M02 A3002 RMK A01 T01311024  RH  034%=      5-min Rain = 0
KFR1 202208Z 21003KT 13/M03 A3002 RMK A01 T01311026  RH  034%=      5-min Rain = 0
KFR1 202209Z 19001KT 13/M03 A3002 RMK A01 T01321025  RH  033%=      5-min Rain = 0
KFR1 202210Z 24003KT 13/M03 A3002 RMK A01 T01311026  RH  034%=      5-min Rain = 0
KFR1 202211Z 22004KT 13/M03 A3002 RMK A01 T01311026  RH  034%=      5-min Rain = 0
KFR1 202212Z 21005KT 13/M03 A3002 RMK A01 T01301026  RH  034%=      5-min Rain = 0
KFR1 202213Z 21004KT 13/M03 A3002 RMK A01 T01301025  RH  034%=      5-min Rain = 0
KFR1 202214Z 20007KT 13/M02 A3002 RMK A01 T01331024  RH  034%=      5-min Rain = 0
KFR1 202215Z 18006KT 14/M02 A3002 RMK A01 T01371024  RH  033%=      5-min Rain = 0
KFR1 202216Z 20005KT 14/M02 A3002 RMK A01 T01411023  RH  032%=      5-min Rain = 0
KFR1 202217Z 19006KT 14/M02 A3002 RMK A01 T01431024  RH  032%=      5-min Rain = 0
KFR1 202218Z 20005KT 14/M02 A3002 RMK A01 T01431023  RH  032%=      5-min Rain = 0
KFR1 202219Z 22004KT 14/M02 A3002 RMK A01 T01431024  RH  032%=      5-min Rain = 0
KFR1 202220Z 21006KT 14/M03 A3002 RMK A01 T01411025  RH  032%=      5-min Rain = 0
KFR1 202221Z 20005KT 14/M02 A3002 RMK A01 T01401023  RH  032%=      5-min Rain = 0
KFR1 202222Z 21007KT 14/M02 A3002 RMK A01 T01411022  RH  032%=      5-min Rain = 0
KFR1 202223Z 20007KT 14/M02 A3002 RMK A01 T01421024  RH  032%=      5-min Rain = 0
KFR1 202224Z 19006KT 14/M02 A3002 RMK A01 T01421024  RH  032%=      5-min Rain = 0
KFR1 202225Z 19006KT 14/M02 A3002 RMK A01 T01421022  RH  032%=      5-min Rain = 0
KFR1 202226Z 20006KT 14/M02 A3002 RMK A01 T01431022  RH  032%=      5-min Rain = 0
KFR1 202227Z 21007KT 14/M02 A3002 RMK A01 T01441021  RH  032%=      5-min Rain = 0
KFR1 202228Z 21008KT 15/M02 A3002 RMK A01 T01451022  RH  032%=      5-min Rain = 0
KFR1 202229Z 21007KT 14/M02 A3002 RMK A01 T01441022  RH  032%=      5-min Rain = 0
KFR1 202230Z 21007KT 14/M02 A3002 RMK A01 T01431021  RH  032%=      5-min Rain = 0
KFR1 202231Z 22005KT 14/M02 A3002 RMK A01 T01431021  RH  032%=      5-min Rain = 0
KFR1 202232Z 20005KT 14/M02 A3002 RMK A01 T01431021  RH  032%=      5-min Rain = 0
KFR1 202233Z 20007KT 14/M02 A3002 RMK A01 T01431020  RH  033%=      5-min Rain = 0
KFR1 202234Z 20008KT 14/M02 A3002 RMK A01 T01441020  RH  032%=      5-min Rain = 0
KFR1 202235Z 20006KT 14/M02 A3002 RMK A01 T01441021  RH  032%=      5-min Rain = 0
KFR1 202236Z 20007KT 14/M02 A3002 RMK A01 T01441020  RH  032%=      5-min Rain = 0
KFR1 202237Z 20007KT 14/M02 A3002 RMK A01 T01441020  RH  032%=      5-min Rain = 0
KFR1 202238Z 20006KT 15/M02 A3002 RMK A01 T01451020  RH  032%=      5-min Rain = 0
KFR1 202239Z 21007KT 15/M02 A3002 RMK A01 T01451020  RH  032%=      5-min Rain = 0
KFR1 202240Z 21009KT 15/M02 A3002 RMK A01 T01461020  RH  032%=      5-min Rain = 0
KFR1 202241Z 21009KT 15/M02 A3002 RMK A01 T01471020  RH  032%=      5-min Rain = 0
KFR1 202242Z 21009KT 15/M02 A3002 RMK A01 T01471020  RH  032%=      5-min Rain = 0
KFR1 202243Z 20008KT 15/M02 A3002 RMK A01 T01471020  RH  032%=      5-min Rain = 0
KFR1 202244Z 20008KT 15/M02 A3002 RMK A01 T01471019  RH  032%=      5-min Rain = 0
KFR1 202245Z 20008KT 15/M02 A3002 RMK A01 T01471019  RH  032%=      5-min Rain = 0
KFR1 202246Z 20008KT 15/M02 A3002 RMK A01 T01471019  RH  032%=      5-min Rain = 0
KFR1 202247Z 19009KT 15/M02 A3001 RMK A01 T01471019  RH  032%=      5-min Rain = 0
KFR1 202248Z 20010KT 15/M02 A3001 RMK A01 T01471019  RH  032%=      5-min Rain = 0
KFR1 202249Z 21008KT 15/M02 A3001 RMK A01 T01471019  RH  032%=      5-min Rain = 0
KFR1 202250Z 21008KT 15/M02 A3001 RMK A01 T01471018  RH  032%=      5-min Rain = 0
KFR1 202251Z 22007KT 15/M02 A3001 RMK A01 T01461018  RH  032%=      5-min Rain = 0
KFR1 202252Z 21009KT 15/M02 A3001 RMK A01 T01461018  RH  032%=      5-min Rain = 0
KFR1 202253Z 20008KT 15/M02 A3001 RMK A01 T01451019  RH  032%=      5-min Rain = 0
KFR1 202254Z 20006KT 15/M02 A3001 RMK A01 T01451018  RH  033%=      5-min Rain = 0
KFR1 202255Z 20007KT 14/M02 A3001 RMK A01 T01441018  RH  033%=      5-min Rain = 0
KFR1 202256Z 21008KT 14/M02 A3001 RMK A01 T01441018  RH  033%=      5-min Rain = 0
KFR1 202257Z 20007KT 14/M02 A3001 RMK A01 T01441019  RH  033%=      5-min Rain = 0
KFR1 202258Z 20007KT 14/M02 A3001 RMK A01 T01431019  RH  033%=      5-min Rain = 0
KFR1 202259Z 20007KT 14/M02 A3001 RMK A01 T01431019  RH  033%=      5-min Rain = 0
KFR1 202300Z 20007KT 14/M02 A3001 RMK A01 T01431019  RH  033%=      5-min Rain = 0
KFR1 202301Z 20006KT 14/M02 A3001 RMK A01 T01431020  RH  033%=      5-min Rain = 0
KFR1 202302Z 20007KT 14/M02 A3001 RMK A01 T01431019  RH  033%=      5-min Rain = 0
KFR1 202303Z 20008KT 14/M02 A3001 RMK A01 T01431020  RH  032%=      5-min Rain = 0
KFR1 202304Z 20006KT 14/M02 A3001 RMK A01 T01431020  RH  032%=      5-min Rain = 0
KFR1 202305Z 19007KT 14/M02 A3001 RMK A01 T01431020  RH  033%=      5-min Rain = 0
KFR1 202306Z 20006KT 14/M02 A3001 RMK A01 T01421019  RH  033%=      5-min Rain = 0
KFR1 202307Z 20006KT 14/M02 A3001 RMK A01 T01421020  RH  033%=      5-min Rain = 0
KFR1 202308Z 20006KT 14/M02 A3001 RMK A01 T01411020  RH  033%=      5-min Rain = 0
KFR1 202309Z 20005KT 14/M02 A3001 RMK A01 T01411019  RH  033%=      5-min Rain = 0
KFR1 202310Z 20006KT 14/M02 A3001 RMK A01 T01401019  RH  033%=      5-min Rain = 0
KFR1 202311Z 20006KT 14/M02 A30 RMK A01 T01401020  RH  033%=      5-min Rain = 0
KFR1 202312Z 20006KT 14/M02 A30 RMK A01 T01401019  RH  033%=      5-min Rain = 0
KFR1 202313Z 20006KT 14/M02 A30 RMK A01 T01391019  RH  033%=      5-min Rain = 0
KFR1 202314Z 20005KT 14/M02 A30 RMK A01 T01391019  RH  033%=      5-min Rain = 0
KFR1 202315Z 20005KT 14/M02 A30 RMK A01 T01391019  RH  034%=      5-min Rain = 0
KFR1 202316Z 20005KT 14/M02 A30 RMK A01 T01381019  RH  034%=      5-min Rain = 0
KFR1 202317Z 20006KT 14/M02 A30 RMK A01 T01381019  RH  034%=      5-min Rain = 0
KFR1 202318Z 20005KT 14/M02 A30 RMK A01 T01371019  RH  034%=      5-min Rain = 0
KFR1 202319Z 20006KT 14/M02 A30 RMK A01 T01371019  RH  034%=      5-min Rain = 0
KFR1 202320Z 19005KT 14/M02 A3001 RMK A01 T01371019  RH  034%=      5-min Rain = 0
KFR1 202321Z 19005KT 14/M02 A3001 RMK A01 T01361019  RH  034%=      5-min Rain = 0
KFR1 202322Z 19005KT 14/M02 A3001 RMK A01 T01361019  RH  034%=      5-min Rain = 0
KFR1 202323Z 19005KT 14/M02 A3001 RMK A01 T01361019  RH  034%=      5-min Rain = 0
KFR1 202324Z 19005KT 14/M02 A3001 RMK A01 T01351020  RH  034%=      5-min Rain = 0
KFR1 202325Z 18005KT 14/M02 A30 RMK A01 T01351020  RH  034%=      5-min Rain = 0
KFR1 202326Z 19005KT 13/M02 A30 RMK A01 T01341020  RH  034%=      5-min Rain = 0
KFR1 202327Z 19005KT 13/M02 A30 RMK A01 T01331020  RH  035%=      5-min Rain = 0
KFR1 202328Z 19005KT 13/M02 A30 RMK A01 T01331020  RH  035%=      5-min Rain = 0
KFR1 202329Z 19005KT 13/M02 A30 RMK A01 T01321020  RH  035%=      5-min Rain = 0
KFR1 202330Z 19006KT 13/M02 A30 RMK A01 T01321020  RH  035%=      5-min Rain = 0
KFR1 202331Z 18006KT 13/M02 A30 RMK A01 T01311020  RH  035%=      5-min Rain = 0
KFR1 202332Z 18006KT 13/M02 A30 RMK A01 T01301020  RH  035%=      5-min Rain = 0
KFR1 202333Z 19006KT 13/M02 A30 RMK A01 T01291020  RH  036%=      5-min Rain = 0
KFR1 202334Z 19006KT 13/M02 A30 RMK A01 T01291020  RH  036%=      5-min Rain = 0
KFR1 202335Z 19007KT 13/M02 A30 RMK A01 T01291020  RH  036%=      5-min Rain = 0
KFR1 202336Z 19007KT 13/M02 A30 RMK A01 T01291019  RH  036%=      5-min Rain = 0
KFR1 202337Z 19007KT 13/M02 A30 RMK A01 T01291019  RH  036%=      5-min Rain = 0
KFR1 202338Z 19008KT 13/M02 A30 RMK A01 T01291019  RH  036%=      5-min Rain = 0
KFR1 202339Z 19008KT 13/M02 A30 RMK A01 T01271019  RH  036%=      5-min Rain = 0
KFR1 202340Z 19008KT 13/M02 A30 RMK A01 T01271019  RH  036%=      5-min Rain = 0
KFR1 202341Z 19008KT 13/M02 A30 RMK A01 T01271019  RH  036%=      5-min Rain = 0
KFR1 202342Z 19008KT 13/M02 A30 RMK A01 T01271020  RH  036%=      5-min Rain = 0
KFR1 202343Z 20008KT 13/M02 A30 RMK A01 T01271020  RH  036%=      5-min Rain = 0
KFR1 202344Z 20008KT 13/M02 A30 RMK A01 T01271020  RH  036%=      5-min Rain = 0
KFR1 202345Z 20008KT 13/M02 A30 RMK A01 T01271020  RH  036%=      5-min Rain = 0
KFR1 202346Z 20008KT 13/M02 A30 RMK A01 T01261020  RH  036%=      5-min Rain = 0
KFR1 202347Z 20008KT 13/M02 A30 RMK A01 T01251020  RH  036%=      5-min Rain = 0
KFR1 202348Z 20008KT 13/M02 A30 RMK A01 T01251021  RH  036%=      5-min Rain = 0
KFR1 202349Z 20008KT 13/M02 A30 RMK A01 T01251021  RH  036%=      5-min Rain = 0
KFR1 202350Z 20008KT 13/M02 A30 RMK A01 T01251021  RH  036%=      5-min Rain = 0
KFR1 202351Z 20008KT 13/M02 A30 RMK A01 T01251021  RH  036%=      5-min Rain = 0
KFR1 202352Z 20008KT 13/M02 A30 RMK A01 T01251021  RH  036%=      5-min Rain = 0
KFR1 202353Z 20008KT 12/M02 A3001 RMK A01 T01241021  RH  036%=      5-min Rain = 0
KFR1 202354Z 20009KT 12/M02 A3001 RMK A01 T01231022  RH  037%=      5-min Rain = 0
KFR1 202355Z 20008KT 12/M02 A3001 RMK A01 T01221022  RH  037%=      5-min Rain = 0
KFR1 202356Z 20008KT 12/M02 A30 RMK A01 T01211022  RH  037%=      5-min Rain = 0
KFR1 202357Z 20009KT 12/M02 A30 RMK A01 T01211022  RH  037%=      5-min Rain = 0
KFR1 202358Z 20009KT 12/M02 A30 RMK A01 T01191022  RH  037%=      5-min Rain = 0
KFR1 202359Z 20009KT 12/M02 A30 RMK A01 T01191022  RH  037%=      5-min Rain = 0
KFR1 210000Z 20009KT 12/M02 A30 RMK A01 T01181022  RH  037%=      5-min Rain = 0
KFR1 210001Z 20009KT 12/M02 A30 RMK A01 T01181022  RH  038%=      5-min Rain = 0
KFR1 210002Z 20009KT 12/M02 A30 RMK A01 T01171022  RH  038%=      5-min Rain = 0
KFR1 210003Z 20009KT 12/M02 A30 RMK A01 T01171022  RH  038%=      5-min Rain = 0
KFR1 210004Z 20009KT 12/M02 A30 RMK A01 T01171022  RH  038%=      5-min Rain = 0
KFR1 210005Z 19009KT 12/M02 A30 RMK A01 T01161022  RH  038%=      5-min Rain = 0
KFR1 210006Z 19008KT 12/M02 A30 RMK A01 T01151023  RH  038%=      5-min Rain = 0
KFR1 210007Z 19008KT 11/M02 A30 RMK A01 T01131023  RH  038%=      5-min Rain = 0
KFR1 210008Z 19009KT 11/M02 A30 RMK A01 T01121023  RH  039%=      5-min Rain = 0
KFR1 210009Z 19009KT 11/M02 A30 RMK A01 T01121023  RH  039%=      5-min Rain = 0
KFR1 210010Z 19009KT 11/M02 A30 RMK A01 T01121023  RH  039%=      5-min Rain = 0
KFR1 210011Z 19009KT 11/M02 A30 RMK A01 T01121023  RH  039%=      5-min Rain = 0
KFR1 210012Z 19009KT 11/M02 A30 RMK A01 T01111023  RH  039%=      5-min Rain = 0
KFR1 210013Z 19009KT 11/M02 A30 RMK A01 T01111024  RH  039%=      5-min Rain = 0
KFR1 210014Z 19009KT 11/M02 A30 RMK A01 T01091024  RH  039%=      5-min Rain = 0
KFR1 210015Z 19009KT 11/M02 A30 RMK A01 T01081024  RH  039%=      5-min Rain = 0
KFR1 210016Z 19008KT 11/M02 A30 RMK A01 T01091024  RH  040%=      5-min Rain = 0
KFR1 210017Z 19009KT 11/M02 A30 RMK A01 T01101023  RH  039%=      5-min Rain = 0
KFR1 210018Z 19009KT 11/M02 A30 RMK A01 T01101023  RH  039%=      5-min Rain = 0
KFR1 210019Z 19009KT 11/M02 A30 RMK A01 T01111023  RH  039%=      5-min Rain = 0
KFR1 210020Z 19009KT 11/M02 A30 RMK A01 T01111023  RH  039%=      5-min Rain = 0
KFR1 210021Z 19009KT 11/M02 A30 RMK A01 T01101023  RH  039%=      5-min Rain = 0
KFR1 210022Z 19009KT 11/M02 A30 RMK A01 T01101023  RH  039%=      5-min Rain = 0
KFR1 210023Z 19009KT 11/M02 A30 RMK A01 T01091023  RH  040%=      5-min Rain = 0
KFR1 210024Z 19009KT 11/M02 A30 RMK A01 T01091023  RH  040%=      5-min Rain = 0
KFR1 210025Z 19009KT 11/M02 A30 RMK A01 T01091023  RH  039%=      5-min Rain = 0
KFR1 210026Z 19009KT 11/M02 A30 RMK A01 T01091023  RH  039%=      5-min Rain = 0
KFR1 210027Z 19009KT 11/M02 A30 RMK A01 T01091024  RH  040%=      5-min Rain = 0
KFR1 210028Z 19009KT 11/M02 A2999 RMK A01 T01081024  RH  040%=      5-min Rain = 0
KFR1 210029Z 19009KT 11/M02 A2999 RMK A01 T01081024  RH  040%=      5-min Rain = 0
KFR1 210030Z 19009KT 11/M02 A2999 RMK A01 T01081023  RH  040%=      5-min Rain = 0
KFR1 210031Z 19009KT 11/M02 A2999 RMK A01 T01091024  RH  040%=      5-min Rain = 0
KFR1 210032Z 19009KT 11/M02 A2999 RMK A01 T01091023  RH  039%=      5-min Rain = 0
KFR1 210033Z 18009KT 11/M02 A2999 RMK A01 T01091023  RH  039%=      5-min Rain = 0
KFR1 210034Z 19009KT 11/M02 A2999 RMK A01 T01101023  RH  039%=      5-min Rain = 0
KFR1 210035Z 19009KT 11/M02 A2999 RMK A01 T01101023  RH  039%=      5-min Rain = 0
KFR1 210036Z 19008KT 11/M02 A2999 RMK A01 T01101023  RH  039%=      5-min Rain = 0
KFR1 210037Z 19009KT 11/M02 A2999 RMK A01 T01091023  RH  039%=      5-min Rain = 0
KFR1 210038Z 19008KT 11/M02 A2999 RMK A01 T01081023  RH  040%=      5-min Rain = 0
KFR1 210039Z 19009KT 11/M02 A2999 RMK A01 T01061024  RH  040%=      5-min Rain = 0
KFR1 210040Z 19009KT 11/M02 A2999 RMK A01 T01051023  RH  041%=      5-min Rain = 0
KFR1 210041Z 19009KT 10/M02 A2999 RMK A01 T01041023  RH  041%=      5-min Rain = 0
KFR1 210042Z 19009KT 10/M02 A2999 RMK A01 T01031023  RH  041%=      5-min Rain = 0
KFR1 210043Z 19009KT 10/M02 A2999 RMK A01 T01021023  RH  041%=      5-min Rain = 0
KFR1 210044Z 18009KT 10/M02 A2999 RMK A01 T01021023  RH  041%=      5-min Rain = 0
KFR1 210045Z 18009KT 10/M02 A2999 RMK A01 T01031023  RH  041%=      5-min Rain = 0
KFR1 210046Z 18009KT 10/M02 A2999 RMK A01 T01021023  RH  041%=      5-min Rain = 0
KFR1 210047Z 18009KT 10/M02 A2999 RMK A01 T01011023  RH  042%=      5-min Rain = 0
KFR1 210048Z 18009KT 10/M02 A2999 RMK A01 T01001023  RH  042%=      5-min Rain = 0
KFR1 210049Z 18009KT 10/M02 A2999 RMK A01 T00991023  RH  042%=      5-min Rain = 0
KFR1 210050Z 18010KT 10/M02 A2999 RMK A01 T00981023  RH  043%=      5-min Rain = 0
KFR1 210051Z 19009KT 10/M02 A2999 RMK A01 T00971023  RH  043%=      5-min Rain = 0
KFR1 210052Z 19008KT 10/M02 A2999 RMK A01 T00961023  RH  043%=      5-min Rain = 0
KFR1 210053Z 19008KT 10/M02 A2999 RMK A01 T00961023  RH  043%=      5-min Rain = 0
KFR1 210054Z 19009KT 10/M02 A2999 RMK A01 T00961023  RH  043%=      5-min Rain = 0
KFR1 210055Z 19010KT 10/M02 A2999 RMK A01 T00961023  RH  043%=      5-min Rain = 0
KFR1 210056Z 18009KT 10/M02 A2999 RMK A01 T00961023  RH  043%=      5-min Rain = 0
KFR1 210057Z 18009KT 10/M02 A2999 RMK A01 T00971022  RH  043%=      5-min Rain = 0
KFR1 210058Z 18010KT 10/M02 A2999 RMK A01 T00971023  RH  043%=      5-min Rain = 0
KFR1 210059Z 19011KT 10/M02 A2999 RMK A01 T00971023  RH  043%=      5-min Rain = 0
KFR1 210100Z 19010KT 10/M02 A2999 RMK A01 T00981022  RH  043%=      5-min Rain = 0
KFR1 210101Z 18010KT 10/M02 A2999 RMK A01 T00991022  RH  043%=      5-min Rain = 0
KFR1 210102Z 18010KT 10/M02 A2999 RMK A01 T01001022  RH  042%=      5-min Rain = 0
KFR1 210103Z 18009KT 10/M02 A2999 RMK A01 T01001022  RH  042%=      5-min Rain = 0
KFR1 210104Z 18009KT 10/M02 A2999 RMK A01 T01001022  RH  042%=      5-min Rain = 0
KFR1 210105Z 18009KT 10/M02 A2999 RMK A01 T00981023  RH  043%=      5-min Rain = 0
KFR1 210106Z 18009KT 10/M02 A2999 RMK A01 T00971022  RH  043%=      5-min Rain = 0
KFR1 210107Z 18010KT 10/M02 A2999 RMK A01 T00961022  RH  044%=      5-min Rain = 0
KFR1 210108Z 18010KT 10/M02 A2999 RMK A01 T00951022  RH  044%=      5-min Rain = 0
KFR1 210109Z 18009KT 10/M02 A2999 RMK A01 T00951022  RH  044%=      5-min Rain = 0
KFR1 210110Z 18009KT 10/M02 A2999 RMK A01 T00951022  RH  044%=      5-min Rain = 0
KFR1 210111Z 18009KT 10/M02 A2999 RMK A01 T00951022  RH  044%=      5-min Rain = 0
KFR1 210112Z 18009KT 09/M02 A2999 RMK A01 T00941022  RH  044%=      5-min Rain = 0
KFR1 210113Z 18009KT 09/M02 A2999 RMK A01 T00941022  RH  044%=      5-min Rain = 0
KFR1 210114Z 18009KT 09/M02 A2999 RMK A01 T00941022  RH  044%=      5-min Rain = 0
KFR1 210115Z 17008KT 09/M02 A2999 RMK A01 T00931022  RH  044%=      5-min Rain = 0
KFR1 210116Z 17009KT 09/M02 A2999 RMK A01 T00921022  RH  045%=      5-min Rain = 0
KFR1 210117Z 17009KT 09/M02 A2999 RMK A01 T00911023  RH  045%=      5-min Rain = 0
KFR1 210118Z 17009KT 09/M02 A2999 RMK A01 T00901023  RH  045%=      5-min Rain = 0
KFR1 210119Z 17008KT 09/M02 A2999 RMK A01 T00901023  RH  045%=      5-min Rain = 0
KFR1 210120Z 17009KT 09/M02 A2999 RMK A01 T00911023  RH  045%=      5-min Rain = 0
KFR1 210121Z 17009KT 09/M02 A2999 RMK A01 T00911023  RH  045%=      5-min Rain = 0
KFR1 210122Z 17008KT 09/M02 A2999 RMK A01 T00931023  RH  044%=      5-min Rain = 0
KFR1 210123Z 17007KT 09/M02 A2999 RMK A01 T00941023  RH  044%=      5-min Rain = 0
KFR1 210124Z 17008KT 09/M02 A2999 RMK A01 T00941023  RH  044%=      5-min Rain = 0
KFR1 210125Z 17009KT 09/M02 A2999 RMK A01 T00931023  RH  044%=      5-min Rain = 0
KFR1 210126Z 17009KT 09/M02 A2999 RMK A01 T00931023  RH  044%=      5-min Rain = 0
KFR1 210127Z 16009KT 09/M02 A2999 RMK A01 T00941023  RH  044%=      5-min Rain = 0
KFR1 210128Z 16010KT 09/M02 A2999 RMK A01 T00941023  RH  044%=      5-min Rain = 0
KFR1 210129Z 15010KT 09/M02 A2999 RMK A01 T00931023  RH  044%=      5-min Rain = 0
KFR1 210130Z 16010KT 09/M02 A2999 RMK A01 T00921024  RH  044%=      5-min Rain = 0
KFR1 210131Z 15008KT 09/M02 A2999 RMK A01 T00911024  RH  044%=      5-min Rain = 0
KFR1 210132Z 15009KT 09/M02 A2999 RMK A01 T00911023  RH  045%=      5-min Rain = 0
KFR1 210133Z 15008KT 09/M02 A2999 RMK A01 T00901023  RH  045%=      5-min Rain = 0
KFR1 210134Z 14009KT 09/M02 A2999 RMK A01 T00891023  RH  045%=      5-min Rain = 0
KFR1 210135Z 14009KT 09/M02 A2999 RMK A01 T00881023  RH  046%=      5-min Rain = 0
KFR1 210136Z 15009KT 09/M02 A2999 RMK A01 T00861024  RH  046%=      5-min Rain = 0
KFR1 210137Z 15009KT 08/M03 A2999 RMK A01 T00841025  RH  046%=      5-min Rain = 0
KFR1 210138Z 14009KT 08/M03 A2999 RMK A01 T00821025  RH  047%=      5-min Rain = 0
KFR1 210139Z 14011KT 08/M03 A2999 RMK A01 T00801026  RH  047%=      5-min Rain = 0
KFR1 210140Z 15010KT 08/M03 A2999 RMK A01 T00781026  RH  048%=      5-min Rain = 0
KFR1 210141Z 15010KT 08/M03 A2999 RMK A01 T00771026  RH  048%=      5-min Rain = 0
KFR1 210142Z 15011KT 08/M03 A2998 RMK A01 T00761026  RH  048%=      5-min Rain = 0
KFR1 210143Z 16011KT 08/M03 A2998 RMK A01 T00751027  RH  049%=      5-min Rain = 0
KFR1 210144Z 15012KT 07/M03 A2998 RMK A01 T00741026  RH  049%=      5-min Rain = 0
KFR1 210145Z 15011KT 07/M03 A2998 RMK A01 T00741027  RH  049%=      5-min Rain = 0
KFR1 210146Z 15012KT 07/M03 A2998 RMK A01 T00741027  RH  049%=      5-min Rain = 0
KFR1 210147Z 15012KT 07/M03 A2998 RMK A01 T00731027  RH  049%=      5-min Rain = 0
KFR1 210148Z 15012KT 07/M03 A2998 RMK A01 T00741027  RH  049%=      5-min Rain = 0
KFR1 210149Z 15010KT 07/M03 A2998 RMK A01 T00741028  RH  048%=      5-min Rain = 0
KFR1 210150Z 15013KT 07/M03 A2998 RMK A01 T00741028  RH  048%=      5-min Rain = 0
KFR1 210151Z 15011G16KT 07/M03 A2998 RMK A01 T00741028  RH  048%=      5-min Rain = 0
KFR1 210152Z 16012KT 08/M03 A2998 RMK A01 T00751028  RH  048%=      5-min Rain = 0
KFR1 210153Z 15011G16KT 08/M03 A2998 RMK A01 T00751029  RH  048%=      5-min Rain = 0
KFR1 210154Z 15010KT 08/M03 A2998 RMK A01 T00751029  RH  048%=      5-min Rain = 0
KFR1 210155Z 16012KT 08/M03 A2998 RMK A01 T00751029  RH  048%=      5-min Rain = 0
KFR1 210156Z 16012KT 08/M03 A2998 RMK A01 T00751029  RH  048%=      5-min Rain = 0
KFR1 210157Z 16011G16KT 08/M03 A2998 RMK A01 T00751029  RH  048%=      5-min Rain = 0
KFR1 210158Z 16013G18KT 08/M03 A2998 RMK A01 T00751029  RH  048%=      5-min Rain = 0
KFR1 210159Z 16015KT 08/M03 A2998 RMK A01 T00751029  RH  048%=      5-min Rain = 0
KFR1 210200Z 15013KT 08/M03 A2998 RMK A01 T00751029  RH  048%=      5-min Rain = 0
KFR1 210201Z 16014KT 08/M03 A2998 RMK A01 T00751029  RH  048%=      5-min Rain = 0
KFR1 210202Z 16014KT 08/M03 A2998 RMK A01 T00751029  RH  048%=      5-min Rain = 0
KFR1 210203Z 16014KT 07/M03 A2998 RMK A01 T00741030  RH  048%=      5-min Rain = 0
KFR1 210204Z 15014KT 07/M03 A2998 RMK A01 T00741029  RH  048%=      5-min Rain = 0
KFR1 210205Z 16013KT 07/M03 A2998 RMK A01 T00741029  RH  048%=      5-min Rain = 0
KFR1 210206Z 16012KT 07/M03 A2998 RMK A01 T00741029  RH  048%=      5-min Rain = 0
KFR1 210207Z 16013KT 07/M03 A2997 RMK A01 T00731030  RH  048%=      5-min Rain = 0
KFR1 210208Z 15014KT 07/M03 A2997 RMK A01 T00731029  RH  048%=      5-min Rain = 0
KFR1 210209Z 16015KT 07/M03 A2997 RMK A01 T00731029  RH  048%=      5-min Rain = 0
KFR1 210210Z 15013KT 07/M03 A2997 RMK A01 T00731029  RH  048%=      5-min Rain = 0
KFR1 210211Z 16014KT 07/M03 A2997 RMK A01 T00721030  RH  048%=      5-min Rain = 0
KFR1 210212Z 15012KT 07/M03 A2997 RMK A01 T00721029  RH  048%=      5-min Rain = 0
KFR1 210213Z 16013KT 07/M03 A2997 RMK A01 T00721029  RH  048%=      5-min Rain = 0
KFR1 210214Z 16015G20KT 07/M03 A2997 RMK A01 T00721029  RH  048%=      5-min Rain = 0
KFR1 210215Z 16013KT 07/M03 A2997 RMK A01 T00721029  RH  048%=      5-min Rain = 0
KFR1 210216Z 15014KT 07/M03 A2997 RMK A01 T00721029  RH  048%=      5-min Rain = 0
KFR1 210217Z 16013KT 07/M03 A2997 RMK A01 T00721029  RH  048%=      5-min Rain = 0
KFR1 210218Z 16013KT 07/M03 A2997 RMK A01 T00721029  RH  048%=      5-min Rain = 0
KFR1 210219Z 16014KT 07/M03 A2997 RMK A01 T00721029  RH  048%=      5-min Rain = 0
KFR1 210220Z 16014KT 07/M03 A2997 RMK A01 T00721029  RH  048%=      5-min Rain = 0
KFR1 210221Z 16013KT 07/M03 A2997 RMK A01 T00721029  RH  048%=      5-min Rain = 0
KFR1 210222Z 15014G19KT 07/M03 A2997 RMK A01 T00721029  RH  048%=      5-min Rain = 0
KFR1 210223Z 16013KT 07/M03 A2997 RMK A01 T00721029  RH  049%=      5-min Rain = 0
KFR1 210224Z 16014G19KT 07/M03 A2997 RMK A01 T00721029  RH  049%=      5-min Rain = 0
KFR1 210225Z 16014KT 07/M03 A2996 RMK A01 T00721029  RH  049%=      5-min Rain = 0
KFR1 210226Z 15015KT 07/M03 A2996 RMK A01 T00721029  RH  049%=      5-min Rain = 0
KFR1 210227Z 16014KT 07/M03 A2996 RMK A01 T00721029  RH  048%=      5-min Rain = 0
KFR1 210228Z 16015KT 07/M03 A2996 RMK A01 T00731029  RH  048%=      5-min Rain = 0
KFR1 210229Z 15013KT 07/M03 A2996 RMK A01 T00731029  RH  048%=      5-min Rain = 0
KFR1 210230Z 15014KT 07/M03 A2996 RMK A01 T00741029  RH  048%=      5-min Rain = 0
KFR1 210231Z 15015KT 07/M03 A2996 RMK A01 T00741029  RH  048%=      5-min Rain = 0
KFR1 210232Z 16015G20KT 07/M03 A2996 RMK A01 T00741029  RH  048%=      5-min Rain = 0
KFR1 210233Z 16014KT 08/M03 A2996 RMK A01 T00751029  RH  048%=      5-min Rain = 0
KFR1 210234Z 16014KT 08/M03 A2996 RMK A01 T00751028  RH  048%=      5-min Rain = 0
KFR1 210235Z 16015KT 08/M03 A2996 RMK A01 T00751029  RH  048%=      5-min Rain = 0
KFR1 210236Z 16014KT 08/M03 A2996 RMK A01 T00761029  RH  048%=      5-min Rain = 0
KFR1 210237Z 15015G20KT 08/M03 A2996 RMK A01 T00761029  RH  047%=      5-min Rain = 0
KFR1 210238Z 16015G20KT 08/M03 A2996 RMK A01 T00761029  RH  047%=      5-min Rain = 0
KFR1 210239Z 15015KT 08/M03 A2996 RMK A01 T00771029  RH  047%=      5-min Rain = 0
KFR1 210240Z 16015KT 08/M03 A2996 RMK A01 T00771029  RH  047%=      5-min Rain = 0
KFR1 210241Z 16016G21KT 08/M03 A2996 RMK A01 T00771029  RH  047%=      5-min Rain = 0
KFR1 210242Z 16014KT 08/M03 A2996 RMK A01 T00771029  RH  047%=      5-min Rain = 0
KFR1 210243Z 16015G20KT 08/M03 A2996 RMK A01 T00761029  RH  047%=      5-min Rain = 0
KFR1 210244Z 16014G19KT 08/M03 A2996 RMK A01 T00761029  RH  047%=      5-min Rain = 0
KFR1 210245Z 16016KT 08/M03 A2996 RMK A01 T00761029  RH  047%=      5-min Rain = 0
KFR1 210246Z 16018KT 08/M03 A2996 RMK A01 T00761029  RH  047%=      5-min Rain = 0
KFR1 210247Z 15018KT 08/M03 A2996 RMK A01 T00761030  RH  047%=      5-min Rain = 0
KFR1 210248Z 16016KT 08/M03 A2996 RMK A01 T00761030  RH  047%=      5-min Rain = 0
KFR1 210249Z 16017KT 08/M03 A2996 RMK A01 T00771030  RH  047%=      5-min Rain = 0
KFR1 210250Z 15016KT 08/M03 A2996 RMK A01 T00761030  RH  047%=      5-min Rain = 0
KFR1 210251Z 16015G20KT 08/M03 A2996 RMK A01 T00761030  RH  047%=      5-min Rain = 0
KFR1 210252Z 15016G22KT 08/M03 A2996 RMK A01 T00761030  RH  047%=      5-min Rain = 0
KFR1 210253Z 16015G20KT 08/M03 A2996 RMK A01 T00761030  RH  047%=      5-min Rain = 0
KFR1 210254Z 15016KT 08/M03 A2995 RMK A01 T00761030  RH  047%=      5-min Rain = 0
KFR1 210255Z 15015KT 08/M03 A2995 RMK A01 T00751030  RH  047%=      5-min Rain = 0
KFR1 210256Z 16018KT 08/M03 A2995 RMK A01 T00751030  RH  047%=      5-min Rain = 0
KFR1 210257Z 16019KT 08/M03 A2995 RMK A01 T00751030  RH  047%=      5-min Rain = 0
KFR1 210258Z 16017KT 08/M03 A2995 RMK A01 T00751030  RH  047%=      5-min Rain = 0
KFR1 210259Z 15018G23KT 08/M03 A2995 RMK A01 T00751030  RH  047%=      5-min Rain = 0
KFR1 210300Z 16016G21KT 07/M03 A2995 RMK A01 T00741030  RH  047%=      5-min Rain = 0
KFR1 210301Z 16016KT 07/M03 A2995 RMK A01 T00741030  RH  048%=      5-min Rain = 0
KFR1 210302Z 16016KT 07/M03 A2995 RMK A01 T00741030  RH  048%=      5-min Rain = 0
KFR1 210303Z 16017G22KT 07/M03 A2995 RMK A01 T00731030  RH  048%=      5-min Rain = 0
KFR1 210304Z 16018KT 07/M03 A2995 RMK A01 T00731029  RH  048%=      5-min Rain = 0
KFR1 210305Z 16017G22KT 07/M03 A2995 RMK A01 T00731030  RH  048%=      5-min Rain = 0
KFR1 210306Z 16014KT 07/M03 A2995 RMK A01 T00731030  RH  048%=      5-min Rain = 0
KFR1 210307Z 16018KT 07/M03 A2995 RMK A01 T00731030  RH  048%=      5-min Rain = 0
KFR1 210308Z 16017G22KT 07/M03 A2995 RMK A01 T00731030  RH  048%=      5-min Rain = 0
KFR1 210309Z 16016KT 07/M03 A2995 RMK A01 T00731030  RH  048%=      5-min Rain = 0
KFR1 210310Z 16016KT 07/M03 A2994 RMK A01 T00731030  RH  048%=      5-min Rain = 0
KFR1 210311Z 15017KT 07/M03 A2994 RMK A01 T00731030  RH  048%=      5-min Rain = 0
KFR1 210312Z 16016KT 07/M03 A2994 RMK A01 T00721030  RH  048%=      5-min Rain = 0
KFR1 210313Z 15015G21KT 07/M03 A2994 RMK A01 T00721030  RH  048%=      5-min Rain = 0
KFR1 210314Z 16019KT 07/M03 A2994 RMK A01 T00721030  RH  048%=      5-min Rain = 0
KFR1 210315Z 16016G21KT 07/M03 A2994 RMK A01 T00721030  RH  048%=      5-min Rain = 0
KFR1 210316Z 16016KT 07/M03 A2994 RMK A01 T00721030  RH  048%=      5-min Rain = 0
KFR1 210317Z 16017G22KT 07/M03 A2994 RMK A01 T00711030  RH  049%=      5-min Rain = 0
KFR1 210318Z 16014KT 07/M03 A2994 RMK A01 T00711030  RH  049%=      5-min Rain = 0
KFR1 210319Z 16019G24KT 07/M03 A2994 RMK A01 T00711030  RH  049%=      5-min Rain = 0
KFR1 210320Z 16019G24KT 07/M03 A2994 RMK A01 T00711030  RH  049%=      5-min Rain = 0
KFR1 210321Z 16017G22KT 07/M03 A2994 RMK A01 T00711030  RH  048%=      5-min Rain = 0
KFR1 210322Z 16019KT 07/M03 A2994 RMK A01 T00721030  RH  048%=      5-min Rain = 0
KFR1 210323Z 16016KT 07/M03 A2994 RMK A01 T00721030  RH  048%=      5-min Rain = 0
KFR1 210324Z 16017G22KT 07/M03 A2994 RMK A01 T00711030  RH  049%=      5-min Rain = 0
KFR1 210325Z 16016G21KT 07/M03 A2994 RMK A01 T00701031  RH  049%=      5-min Rain = 0
KFR1 210326Z 16017KT 07/M03 A2994 RMK A01 T00711030  RH  049%=      5-min Rain = 0
KFR1 210327Z 16018KT 07/M03 A2994 RMK A01 T00711030  RH  049%=      5-min Rain = 0
KFR1 210328Z 16018KT 07/M03 A2994 RMK A01 T00701030  RH  049%=      5-min Rain = 0
KFR1 210329Z 16015KT 07/M03 A2994 RMK A01 T00701031  RH  049%=      5-min Rain = 0
KFR1 210330Z 16016KT 07/M03 A2994 RMK A01 T00701030  RH  049%=      5-min Rain = 0
KFR1 210331Z 16016KT 07/M03 A2994 RMK A01 T00691031  RH  049%=      5-min Rain = 0
KFR1 210332Z 16014KT 07/M03 A2994 RMK A01 T00691030  RH  049%=      5-min Rain = 0
KFR1 210333Z 16015KT 07/M03 A2994 RMK A01 T00691030  RH  049%=      5-min Rain = 0
KFR1 210334Z 16016G21KT 07/M03 A2994 RMK A01 T00691030  RH  049%=      5-min Rain = 0
KFR1 210335Z 17014KT 07/M03 A2994 RMK A01 T00701030  RH  049%=      5-min Rain = 0
KFR1 210336Z 16016G21KT 07/M03 A2994 RMK A01 T00701030  RH  049%=      5-min Rain = 0
KFR1 210337Z 16015KT 07/M03 A2994 RMK A01 T00701031  RH  049%=      5-min Rain = 0
KFR1 210338Z 16016KT 07/M03 A2994 RMK A01 T00701031  RH  049%=      5-min Rain = 0
KFR1 210339Z 16014KT 07/M03 A2994 RMK A01 T00701031  RH  049%=      5-min Rain = 0
KFR1 210340Z 17015KT 07/M03 A2994 RMK A01 T00701031  RH  049%=      5-min Rain = 0
KFR1 210341Z 17014G19KT 07/M03 A2994 RMK A01 T00701031  RH  049%=      5-min Rain = 0
KFR1 210342Z 16012KT 07/M03 A2994 RMK A01 T00701030  RH  049%=      5-min Rain = 0
KFR1 210343Z 17015KT 07/M03 A2994 RMK A01 T00701031  RH  049%=      5-min Rain = 0
KFR1 210344Z 17014KT 07/M03 A2994 RMK A01 T00701031  RH  049%=      5-min Rain = 0
KFR1 210345Z 17012KT 07/M03 A2994 RMK A01 T00691031  RH  049%=      5-min Rain = 0
KFR1 210346Z 18013KT 07/M03 A2994 RMK A01 T00691031  RH  049%=      5-min Rain = 0
KFR1 210347Z 17013KT 07/M03 A2994 RMK A01 T00681031  RH  049%=      5-min Rain = 0
KFR1 210348Z 17013KT 07/M03 A2994 RMK A01 T00681031  RH  049%=      5-min Rain = 0
KFR1 210349Z 18011KT 07/M03 A2994 RMK A01 T00681031  RH  049%=      5-min Rain = 0
KFR1 210350Z 17012KT 07/M03 A2994 RMK A01 T00671031  RH  049%=      5-min Rain = 0
KFR1 210351Z 18012KT 07/M03 A2994 RMK A01 T00671031  RH  049%=      5-min Rain = 0
KFR1 210352Z 18012KT 07/M03 A2994 RMK A01 T00671031  RH  050%=      5-min Rain = 0
KFR1 210353Z 17013KT 07/M03 A2994 RMK A01 T00671031  RH  050%=      5-min Rain = 0
KFR1 210354Z 18011KT 07/M03 A2994 RMK A01 T00671031  RH  050%=      5-min Rain = 0
KFR1 210355Z 18011G16KT 07/M03 A2994 RMK A01 T00661032  RH  050%=      5-min Rain = 0
KFR1 210356Z 18011KT 07/M03 A2994 RMK A01 T00661032  RH  050%=      5-min Rain = 0
KFR1 210357Z 19008KT 07/M03 A2994 RMK A01 T00661032  RH  050%=      5-min Rain = 0
KFR1 210358Z 18010KT 07/M03 A2994 RMK A01 T00661032  RH  050%=      5-min Rain = 0
KFR1 210359Z 18010KT 07/M03 A2994 RMK A01 T00661032  RH  050%=      5-min Rain = 0
KFR1 210400Z 19006KT 07/M03 A2994 RMK A01 T00661032  RH  050%=      5-min Rain = 0
KFR1 210401Z 19008KT 07/M03 A2994 RMK A01 T00651032  RH  050%=      5-min Rain = 0
KFR1 210402Z 18007KT 06/M03 A2994 RMK A01 T00641032  RH  050%=      5-min Rain = 0
KFR1 210403Z 19008KT 06/M03 A2994 RMK A01 T00641032  RH  050%=      5-min Rain = 0
KFR1 210404Z 18010KT 06/M03 A2994 RMK A01 T00641032  RH  050%=      5-min Rain = 0
KFR1 210405Z 19008KT 06/M03 A2994 RMK A01 T00641032  RH  050%=      5-min Rain = 0
KFR1 210406Z 18006KT 06/M03 A2994 RMK A01 T00641032  RH  050%=      5-min Rain = 0
KFR1 210407Z 19010KT 06/M03 A2994 RMK A01 T00631032  RH  050%=      5-min Rain = 0
KFR1 210408Z 19008KT 06/M03 A2994 RMK A01 T00631032  RH  050%=      5-min Rain = 0
KFR1 210409Z 18009KT 06/M03 A2994 RMK A01 T00631032  RH  050%=      5-min Rain = 0
KFR1 210410Z 18009KT 06/M03 A2994 RMK A01 T00631032  RH  050%=      5-min Rain = 0
KFR1 210411Z 17010KT 06/M03 A2994 RMK A01 T00631033  RH  050%=      5-min Rain = 0
KFR1 210412Z 18008KT 06/M03 A2994 RMK A01 T00631032  RH  050%=      5-min Rain = 0
KFR1 210413Z 18009KT 06/M03 A2994 RMK A01 T00631032  RH  050%=      5-min Rain = 0
KFR1 210414Z 18007KT 06/M03 A2994 RMK A01 T00621032  RH  051%=      5-min Rain = 0
KFR1 210415Z 17007KT 06/M03 A2994 RMK A01 T00621033  RH  051%=      5-min Rain = 0
KFR1 210416Z 17008KT 06/M03 A2994 RMK A01 T00621033  RH  051%=      5-min Rain = 0
KFR1 210417Z 17008KT 06/M03 A2994 RMK A01 T00611033  RH  051%=      5-min Rain = 0
KFR1 210418Z 18007KT 06/M03 A2994 RMK A01 T00611033  RH  051%=      5-min Rain = 0
KFR1 210419Z 18008KT 06/M03 A2994 RMK A01 T00601033  RH  051%=      5-min Rain = 0
KFR1 210420Z 18007KT 06/M03 A2994 RMK A01 T00601032  RH  051%=      5-min Rain = 0
KFR1 210421Z 18007KT 06/M03 A2994 RMK A01 T00601033  RH  051%=      5-min Rain = 0
KFR1 210422Z 19008KT 06/M03 A2994 RMK A01 T00591033  RH  052%=      5-min Rain = 0
KFR1 210423Z 18008G13KT 06/M03 A2994 RMK A01 T00591033  RH  052%=      5-min Rain = 0
KFR1 210424Z 18008KT 06/M03 A2994 RMK A01 T00601033  RH  051%=      5-min Rain = 0
KFR1 210425Z 19006KT 06/M03 A2994 RMK A01 T00601033  RH  051%=      5-min Rain = 0
KFR1 210426Z 20008KT 06/M03 A2994 RMK A01 T00601033  RH  052%=      5-min Rain = 0
KFR1 210427Z 20008KT 06/M03 A2994 RMK A01 T00601033  RH  052%=      5-min Rain = 0
KFR1 210428Z 20007KT 06/M03 A2994 RMK A01 T00601032  RH  052%=      5-min Rain = 0
KFR1 210429Z 20007KT 06/M03 A2994 RMK A01 T00591033  RH  052%=      5-min Rain = 0
KFR1 210430Z 20008KT 06/M03 A2994 RMK A01 T00591033  RH  052%=      5-min Rain = 0
KFR1 210431Z 21008KT 06/M03 A2994 RMK A01 T00591033  RH  052%=      5-min Rain = 0
KFR1 210432Z 20009KT 06/M03 A2994 RMK A01 T00591033  RH  052%=      5-min Rain = 0
KFR1 210433Z 21007KT 06/M03 A2994 RMK A01 T00591033  RH  052%=      5-min Rain = 0
KFR1 210434Z 21008KT 06/M03 A2994 RMK A01 T00591033  RH  052%=      5-min Rain = 0
KFR1 210435Z 21007KT 06/M03 A2994 RMK A01 T00591033  RH  052%=      5-min Rain = 0
KFR1 210436Z 21007KT 06/M03 A2994 RMK A01 T00581033  RH  052%=      5-min Rain = 0
KFR1 210437Z 21006KT 06/M03 A2994 RMK A01 T00581033  RH  052%=      5-min Rain = 0
KFR1 210438Z 21006KT 06/M03 A2994 RMK A01 T00591033  RH  051%=      5-min Rain = 0
KFR1 210439Z 21006KT 06/M03 A2994 RMK A01 T00601033  RH  051%=      5-min Rain = 0
KFR1 210440Z 21007KT 06/M03 A2994 RMK A01 T00601033  RH  051%=      5-min Rain = 0
KFR1 210441Z 21007KT 06/M03 A2994 RMK A01 T00611033  RH  051%=      5-min Rain = 0
KFR1 210442Z 21006KT 06/M03 A2994 RMK A01 T00631034  RH  050%=      5-min Rain = 0
KFR1 210443Z 20006KT 06/M03 A2994 RMK A01 T00641034  RH  049%=      5-min Rain = 0
KFR1 210444Z 20006KT 07/M03 A2993 RMK A01 T00651034  RH  049%=      5-min Rain = 0
KFR1 210445Z 20008KT 07/M03 A2993 RMK A01 T00651034  RH  049%=      5-min Rain = 0
KFR1 210446Z 20006KT 07/M04 A2993 RMK A01 T00651035  RH  049%=      5-min Rain = 0
KFR1 210447Z 20006KT 07/M04 A2993 RMK A01 T00661035  RH  049%=      5-min Rain = 0
KFR1 210448Z 21007KT 07/M04 A2993 RMK A01 T00661035  RH  048%=      5-min Rain = 0
KFR1 210449Z 22007KT 07/M04 A2993 RMK A01 T00671035  RH  048%=      5-min Rain = 0
KFR1 210450Z 21005KT 07/M04 A2993 RMK A01 T00671036  RH  048%=      5-min Rain = 0
KFR1 210451Z 20007KT 07/M04 A2993 RMK A01 T00661036  RH  048%=      5-min Rain = 0
KFR1 210452Z 21006KT 07/M04 A2993 RMK A01 T00651036  RH  048%=      5-min Rain = 0
KFR1 210453Z 21007KT 07/M04 A2993 RMK A01 T00661036  RH  048%=      5-min Rain = 0
KFR1 210454Z 20008KT 07/M04 A2993 RMK A01 T00671035  RH  048%=      5-min Rain = 0
KFR1 210455Z 21007KT 07/M04 A2993 RMK A01 T00681036  RH  048%=      5-min Rain = 0
KFR1 210456Z 20006KT 07/M04 A2993 RMK A01 T00671036  RH  048%=      5-min Rain = 0
KFR1 210457Z 20006KT 07/M04 A2993 RMK A01 T00671036  RH  048%=      5-min Rain = 0
KFR1 210458Z 20007KT 07/M04 A2993 RMK A01 T00661036  RH  048%=      5-min Rain = 0
KFR1 210459Z 20009KT 07/M04 A2993 RMK A01 T00661036  RH  048%=      5-min Rain = 0
KFR1 210500Z 20010KT 07/M04 A2993 RMK A01 T00661036  RH  048%=      5-min Rain = 0
KFR1 210501Z 19010KT 07/M04 A2993 RMK A01 T00671036  RH  048%=      5-min Rain = 0
KFR1 210502Z 20010KT 07/M04 A2993 RMK A01 T00671036  RH  048%=      5-min Rain = 0
KFR1 210503Z 19010KT 07/M04 A2993 RMK A01 T00671036  RH  048%=      5-min Rain = 0
KFR1 210504Z 19011KT 07/M04 A2993 RMK A01 T00671036  RH  048%=      5-min Rain = 0
KFR1 210505Z 19011KT 07/M04 A2993 RMK A01 T00661036  RH  048%=      5-min Rain = 0
KFR1 210506Z 19009KT 07/M04 A2993 RMK A01 T00661036  RH  048%=      5-min Rain = 0
KFR1 210507Z 19011KT 07/M04 A2993 RMK A01 T00661036  RH  048%=      5-min Rain = 0
KFR1 210508Z 19010KT 07/M04 A2993 RMK A01 T00661037  RH  048%=      5-min Rain = 0
KFR1 210509Z 19010KT 07/M04 A2993 RMK A01 T00661037  RH  048%=      5-min Rain = 0
KFR1 210510Z 19011KT 07/M04 A2993 RMK A01 T00651038  RH  048%=      5-min Rain = 0
KFR1 210511Z 19011KT 07/M04 A2993 RMK A01 T00661038  RH  048%=      5-min Rain = 0
KFR1 210512Z 19011KT 07/M04 A2993 RMK A01 T00671038  RH  047%=      5-min Rain = 0
KFR1 210513Z 19011KT 07/M04 A2993 RMK A01 T00681038  RH  047%=      5-min Rain = 0
KFR1 210514Z 19009KT 07/M04 A2992 RMK A01 T00681038  RH  047%=      5-min Rain = 0
KFR1 210515Z 19011KT 07/M04 A2992 RMK A01 T00681038  RH  047%=      5-min Rain = 0
KFR1 210516Z 19010KT 07/M04 A2992 RMK A01 T00671039  RH  047%=      5-min Rain = 0
KFR1 210517Z 19011KT 07/M04 A2992 RMK A01 T00681039  RH  047%=      5-min Rain = 0
KFR1 210518Z 19011KT 07/M04 A2992 RMK A01 T00681039  RH  046%=      5-min Rain = 0
KFR1 210519Z 18011KT 07/M04 A2992 RMK A01 T00681039  RH  046%=      5-min Rain = 0
KFR1 210520Z 19009KT 07/M04 A2992 RMK A01 T00691039  RH  046%=      5-min Rain = 0
KFR1 210521Z 19009KT 07/M04 A2992 RMK A01 T00691039  RH  046%=      5-min Rain = 0
KFR1 210522Z 18010KT 07/M04 A2992 RMK A01 T00691039  RH  046%=      5-min Rain = 0
KFR1 210523Z 19008KT 07/M04 A2992 RMK A01 T00691039  RH  046%=      5-min Rain = 0
KFR1 210524Z 19011G16KT 07/M04 A2992 RMK A01 T00681039  RH  046%=      5-min Rain = 0
KFR1 210525Z 18010KT 07/M04 A2992 RMK A01 T00681039  RH  046%=      5-min Rain = 0
KFR1 210526Z 19011KT 07/M04 A2992 RMK A01 T00681039  RH  046%=      5-min Rain = 0
KFR1 210527Z 18010KT 07/M04 A2992 RMK A01 T00691039  RH  046%=      5-min Rain = 0
KFR1 210528Z 18011KT 07/M04 A2992 RMK A01 T00701039  RH  046%=      5-min Rain = 0
KFR1 210529Z 18009KT 07/M04 A2992 RMK A01 T00711039  RH  045%=      5-min Rain = 0
KFR1 210530Z 18011KT 07/M04 A2992 RMK A01 T00711039  RH  045%=      5-min Rain = 0
KFR1 210531Z 18010KT 07/M04 A2992 RMK A01 T00711039  RH  045%=      5-min Rain = 0
KFR1 210532Z 19012KT 07/M04 A2992 RMK A01 T00711039  RH  046%=      5-min Rain = 0
KFR1 210533Z 18012KT 07/M04 A2992 RMK A01 T00711038  RH  046%=      5-min Rain = 0
KFR1 210534Z 18013KT 07/M04 A2992 RMK A01 T00711038  RH  046%=      5-min Rain = 0
KFR1 210535Z 18014KT 07/M04 A2992 RMK A01 T00711038  RH  046%=      5-min Rain = 0
KFR1 210536Z 18015KT 07/M04 A2991 RMK A01 T00701038  RH  046%=      5-min Rain = 0
KFR1 210537Z 18012KT 07/M04 A2991 RMK A01 T00701039  RH  046%=      5-min Rain = 0
KFR1 210538Z 18013KT 07/M04 A2991 RMK A01 T00691039  RH  046%=      5-min Rain = 0
KFR1 210539Z 18015KT 07/M04 A2991 RMK A01 T00681038  RH  046%=      5-min Rain = 0
KFR1 210540Z 18013KT 07/M04 A2991 RMK A01 T00681039  RH  047%=      5-min Rain = 0
KFR1 210541Z 18013KT 07/M04 A2991 RMK A01 T00671039  RH  047%=      5-min Rain = 0
KFR1 210542Z 18015KT 07/M04 A2991 RMK A01 T00671039  RH  047%=      5-min Rain = 0
KFR1 210543Z 18014KT 07/M04 A2991 RMK A01 T00671039  RH  047%=      5-min Rain = 0
KFR1 210544Z 17014KT 07/M04 A2991 RMK A01 T00671039  RH  047%=      5-min Rain = 0
KFR1 210545Z 17014KT 07/M04 A2991 RMK A01 T00661039  RH  047%=      5-min Rain = 0
KFR1 210546Z 18014KT 07/M04 A2991 RMK A01 T00661039  RH  047%=      5-min Rain = 0
KFR1 210547Z 17014G20KT 07/M04 A2991 RMK A01 T00651039  RH  047%=      5-min Rain = 0
KFR1 210548Z 18015KT 07/M04 A2991 RMK A01 T00651039  RH  047%=      5-min Rain = 0
KFR1 210549Z 18015KT 07/M04 A2991 RMK A01 T00651039  RH  048%=      5-min Rain = 0
KFR1 210550Z 18015KT 07/M04 A2991 RMK A01 T00651039  RH  047%=      5-min Rain = 0
KFR1 210551Z 18014KT 07/M04 A2991 RMK A01 T00651039  RH  047%=      5-min Rain = 0
KFR1 210552Z 18014KT 07/M04 A2991 RMK A01 T00651039  RH  047%=      5-min Rain = 0
KFR1 210553Z 18014G19KT 07/M04 A2991 RMK A01 T00651039  RH  047%=      5-min Rain = 0
KFR1 210554Z 18014KT 06/M04 A2991 RMK A01 T00641039  RH  048%=      5-min Rain = 0
KFR1 210555Z 18012KT 06/M04 A2991 RMK A01 T00641039  RH  048%=      5-min Rain = 0
KFR1 210556Z 19013KT 06/M04 A2991 RMK A01 T00631039  RH  048%=      5-min Rain = 0
KFR1 210557Z 19011KT 06/M04 A2991 RMK A01 T00631039  RH  048%=      5-min Rain = 0
KFR1 210558Z 19011KT 06/M04 A2991 RMK A01 T00631039  RH  048%=      5-min Rain = 0
KFR1 210559Z 18013KT 06/M04 A2991 RMK A01 T00621039  RH  048%=      5-min Rain = 0

Page generated in 0.1185 seconds.